Time,TemperatureF,DewpointF,PressureIn,WindDirection,WindDirectionDegrees,WindSpeedMPH,WindSpeedGustMPH,Humidity,HourlyPrecipIn,Conditions,Clouds,dailyrainin,SoftwareType,DateUTC
2013-02-09 00:00:00,31.5,28.6,30.15,ESE,108,6.0,16.0,89,0.00,,---,0.00,VWS V14.01,2013-02-09 06:00:00,
2013-02-09 00:30:00,31.2,28.1,30.13,ESE,112,7.0,12.0,88,0.00,,---,0.00,VWS V14.01,2013-02-09 06:30:00,
2013-02-09 01:00:00,30.7,27.9,30.14,ESE,112,6.0,11.0,89,0.00,,---,0.00,VWS V14.01,2013-02-09 07:00:00,
2013-02-09 01:30:00,30.0,27.4,30.13,East,90,5.0,10.0,90,0.00,,---,0.00,VWS V14.01,2013-02-09 07:30:00,
2013-02-09 02:00:00,29.8,27.5,30.14,East,90,5.0,10.0,91,0.00,,---,0.00,VWS V14.01,2013-02-09 08:00:00,
2013-02-09 02:37:00,29.7,27.4,30.11,ESE,113,9.0,9.0,91,0.00,,---,0.00,VWS V14.01,2013-02-09 08:37:00,
2013-02-09 02:42:00,29.7,27.4,30.11,ESE,110,6.0,10.0,91,0.00,,---,0.00,VWS V14.01,2013-02-09 08:42:00,
2013-02-09 02:43:00,29.7,27.4,30.11,ESE,109,7.0,10.0,91,0.00,,---,0.00,VWS V14.01,2013-02-09 08:43:00,
2013-02-09 02:47:00,29.7,27.4,30.11,East,94,10.0,10.0,91,0.00,,---,0.00,VWS V14.01,2013-02-09 08:47:00,
2013-02-09 02:48:00,29.7,27.4,30.11,East,91,9.0,13.0,91,0.00,,---,0.00,VWS V14.01,2013-02-09 08:48:00,
2013-02-09 02:52:00,29.7,27.4,30.11,East,101,7.0,13.0,91,0.00,,---,0.00,VWS V14.01,2013-02-09 08:52:00,
2013-02-09 02:53:00,29.7,27.4,30.11,ESE,103,11.0,13.0,91,0.00,,---,0.00,VWS V14.01,2013-02-09 08:53:00,
2013-02-09 02:58:00,29.7,27.4,30.11,ESE,109,10.0,13.0,91,0.00,,---,0.00,VWS V14.01,2013-02-09 08:58:00,
2013-02-09 02:59:00,29.7,27.4,30.11,ESE,103,9.0,13.0,91,0.00,,---,0.00,VWS V14.01,2013-02-09 08:59:00,
2013-02-09 03:00:00,29.7,27.4,30.11,East,97,10.0,10.0,91,0.00,,---,0.00,VWS V14.01,2013-02-09 09:00:00,
2013-02-09 03:03:00,29.8,27.5,30.10,East,93,10.0,16.0,91,0.00,,---,0.00,VWS V14.01,2013-02-09 09:03:00,
2013-02-09 03:04:00,29.8,27.5,30.10,East,97,9.0,16.0,91,0.00,,---,0.00,VWS V14.01,2013-02-09 09:04:00,
2013-02-09 03:08:00,29.8,27.5,30.10,ESE,103,9.0,16.0,91,0.00,,---,0.00,VWS V14.01,2013-02-09 09:08:00,
2013-02-09 03:09:00,29.8,27.5,30.10,ESE,108,11.0,16.0,91,0.00,,---,0.00,VWS V14.01,2013-02-09 09:09:00,
2013-02-09 03:10:00,29.8,27.5,30.10,ESE,105,10.0,16.0,91,0.00,,---,0.00,VWS V14.01,2013-02-09 09:10:00,
2013-02-09 03:13:00,29.8,27.5,30.10,ESE,107,11.0,16.0,91,0.00,,---,0.00,VWS V14.01,2013-02-09 09:13:00,
2013-02-09 03:14:00,29.8,27.5,30.10,ESE,105,7.0,16.0,91,0.00,,---,0.00,VWS V14.01,2013-02-09 09:14:00,
2013-02-09 03:15:00,29.8,27.5,30.10,ESE,113,10.0,16.0,91,0.00,,---,0.00,VWS V14.01,2013-02-09 09:15:00,
2013-02-09 03:18:00,29.8,27.5,30.09,ESE,110,12.0,12.0,91,0.00,,---,0.00,VWS V14.01,2013-02-09 09:18:00,
2013-02-09 03:20:00,29.8,27.5,30.09,ENE,72,9.0,13.0,91,0.00,,---,0.00,VWS V14.01,2013-02-09 09:20:00,
2013-02-09 03:23:00,29.8,27.5,30.09,ESE,112,10.0,14.0,91,0.00,,---,0.00,VWS V14.01,2013-02-09 09:23:00,
2013-02-09 03:25:00,29.8,27.5,30.09,East,96,7.0,14.0,91,0.00,,---,0.00,VWS V14.01,2013-02-09 09:25:00,
2013-02-09 03:26:00,29.8,27.5,30.09,ESE,106,11.0,14.0,91,0.00,,---,0.00,VWS V14.01,2013-02-09 09:26:00,
2013-02-09 03:28:00,29.8,27.5,30.09,East,101,12.0,14.0,91,0.00,,---,0.00,VWS V14.01,2013-02-09 09:28:00,
2013-02-09 03:29:00,29.8,27.5,30.09,East,96,9.0,14.0,91,0.00,,---,0.00,VWS V14.01,2013-02-09 09:29:00,
2013-02-09 03:30:00,29.8,27.5,30.09,ESE,107,10.0,14.0,91,0.00,,---,0.00,VWS V14.01,2013-02-09 09:30:00,
2013-02-09 03:31:00,29.8,27.5,30.08,ESE,103,10.0,14.0,91,0.00,,---,0.00,VWS V14.01,2013-02-09 09:31:00,
2013-02-09 03:33:00,29.8,27.5,30.08,ESE,114,10.0,14.0,91,0.00,,---,0.00,VWS V14.01,2013-02-09 09:33:00,
2013-02-09 03:34:00,29.8,27.5,30.08,East,98,7.0,14.0,91,0.00,,---,0.00,VWS V14.01,2013-02-09 09:34:00,
2013-02-09 03:36:00,29.8,27.5,30.08,East,101,9.0,14.0,91,0.00,,---,0.00,VWS V14.01,2013-02-09 09:36:00,
2013-02-09 03:39:00,29.8,27.5,30.08,East,97,11.0,14.0,91,0.00,,---,0.00,VWS V14.01,2013-02-09 09:39:00,
2013-02-09 03:41:00,29.8,27.5,30.08,East,101,6.0,14.0,91,0.00,,---,0.00,VWS V14.01,2013-02-09 09:41:00,
2013-02-09 03:44:00,29.8,27.5,30.08,East,91,12.0,14.0,91,0.00,,---,0.00,VWS V14.01,2013-02-09 09:44:00,
2013-02-09 03:45:00,29.8,27.5,30.08,ESE,109,11.0,14.0,91,0.00,,---,0.00,VWS V14.01,2013-02-09 09:45:00,
2013-02-09 03:46:00,29.8,27.5,30.07,ESE,108,11.0,14.0,91,0.00,,---,0.00,VWS V14.01,2013-02-09 09:46:00,
2013-02-09 03:47:00,29.8,27.5,30.07,ESE,108,7.0,11.0,91,0.00,,---,0.00,VWS V14.01,2013-02-09 09:47:00,
2013-02-09 03:49:00,30.0,27.7,30.07,ESE,122,11.0,12.0,91,0.00,,---,0.00,VWS V14.01,2013-02-09 09:49:00,
2013-02-09 03:50:00,30.0,27.7,30.07,ESE,104,6.0,12.0,91,0.00,,---,0.00,VWS V14.01,2013-02-09 09:50:00,
2013-02-09 03:51:00,30.0,27.7,30.07,ESE,110,6.0,12.0,91,0.00,,---,0.00,VWS V14.01,2013-02-09 09:51:00,
2013-02-09 03:53:00,30.0,27.7,30.07,East,98,4.0,12.0,91,0.00,,---,0.00,VWS V14.01,2013-02-09 09:53:00,
2013-02-09 03:54:00,30.0,27.7,30.07,ESE,121,10.0,12.0,91,0.00,,---,0.00,VWS V14.01,2013-02-09 09:54:00,
2013-02-09 03:55:00,30.0,27.7,30.07,ESE,104,6.0,12.0,91,0.00,,---,0.00,VWS V14.01,2013-02-09 09:55:00,
2013-02-09 03:57:00,30.0,27.7,30.07,ESE,102,5.0,12.0,91,0.00,,---,0.00,VWS V14.01,2013-02-09 09:57:00,
2013-02-09 03:58:00,30.0,27.7,30.07,East,82,10.0,12.0,91,0.00,,---,0.00,VWS V14.01,2013-02-09 09:58:00,
2013-02-09 03:59:00,30.0,27.7,30.07,ENE,74,6.0,12.0,91,0.00,,---,0.00,VWS V14.01,2013-02-09 09:59:00,
2013-02-09 04:00:00,30.0,27.7,30.07,East,98,5.0,12.0,91,0.00,,---,0.00,VWS V14.01,2013-02-09 10:00:00,
2013-02-09 04:02:00,30.0,27.7,30.08,ESE,102,5.0,12.0,91,0.00,,---,0.00,VWS V14.01,2013-02-09 10:02:00,
2013-02-09 04:03:00,30.0,27.7,30.08,ESE,103,6.0,12.0,91,0.00,,---,0.00,VWS V14.01,2013-02-09 10:03:00,
2013-02-09 04:04:00,30.0,27.7,30.08,ESE,108,6.0,12.0,91,0.00,,---,0.00,VWS V14.01,2013-02-09 10:04:00,
2013-02-09 04:06:00,30.0,27.7,30.08,ESE,105,7.0,12.0,91,0.00,,---,0.00,VWS V14.01,2013-02-09 10:06:00,
2013-02-09 04:07:00,30.0,27.7,30.08,East,101,6.0,12.0,91,0.00,,---,0.00,VWS V14.01,2013-02-09 10:07:00,
2013-02-09 04:08:00,30.0,27.7,30.08,East,101,6.0,12.0,91,0.00,,---,0.00,VWS V14.01,2013-02-09 10:08:00,
2013-02-09 04:09:00,30.0,27.7,30.08,East,96,9.0,12.0,91,0.00,,---,0.00,VWS V14.01,2013-02-09 10:09:00,
2013-02-09 04:11:00,30.0,27.7,30.08,East,100,8.0,12.0,91,0.00,,---,0.00,VWS V14.01,2013-02-09 10:11:00,
2013-02-09 04:12:00,30.0,27.7,30.08,East,99,5.0,12.0,91,0.00,,---,0.00,VWS V14.01,2013-02-09 10:12:00,
2013-02-09 04:14:00,30.0,27.7,30.08,East,92,6.0,12.0,91,0.00,,---,0.00,VWS V14.01,2013-02-09 10:14:00,
2013-02-09 04:16:00,30.0,27.7,30.08,East,94,7.0,12.0,91,0.00,,---,0.00,VWS V14.01,2013-02-09 10:16:00,
2013-02-09 04:18:00,30.0,27.7,30.08,East,98,5.0,10.0,91,0.00,,---,0.00,VWS V14.01,2013-02-09 10:18:00,
2013-02-09 04:20:00,30.0,27.7,30.08,ESE,109,10.0,10.0,91,0.00,,---,0.00,VWS V14.01,2013-02-09 10:20:00,
2013-02-09 04:21:00,30.0,27.7,30.08,ESE,107,10.0,11.0,91,0.00,,---,0.00,VWS V14.01,2013-02-09 10:21:00,
2013-02-09 04:23:00,30.0,27.7,30.08,ESE,104,6.0,11.0,91,0.00,,---,0.00,VWS V14.01,2013-02-09 10:23:00,
2013-02-09 04:25:00,30.0,27.7,30.08,East,95,6.0,11.0,91,0.00,,---,0.00,VWS V14.01,2013-02-09 10:25:00,
2013-02-09 04:26:00,30.0,27.7,30.08,East,94,10.0,11.0,91,0.00,,---,0.00,VWS V14.01,2013-02-09 10:26:00,
2013-02-09 04:30:00,30.0,27.7,30.08,East,96,9.0,11.0,91,0.00,,---,0.00,VWS V14.01,2013-02-09 10:30:00,
2013-02-09 04:32:00,30.0,27.7,30.07,ESE,108,6.0,11.0,91,0.00,,---,0.00,VWS V14.01,2013-02-09 10:32:00,
2013-02-09 04:35:00,30.0,27.7,30.07,ESE,112,6.0,11.0,91,0.00,,---,0.00,VWS V14.01,2013-02-09 10:35:00,
2013-02-09 04:36:00,30.0,27.7,30.07,ESE,106,6.0,11.0,91,0.00,,---,0.00,VWS V14.01,2013-02-09 10:36:00,
2013-02-09 05:00:00,30.0,27.7,30.07,East,90,8.0,13.0,91,0.00,,---,0.00,VWS V14.01,2013-02-09 11:00:00,
2013-02-09 05:30:00,30.4,28.1,30.06,East,90,9.0,14.0,91,0.00,,---,0.00,VWS V14.01,2013-02-09 11:30:00,
2013-02-09 06:00:00,30.7,28.1,30.06,ESE,112,10.0,15.0,90,0.00,,---,0.00,VWS V14.01,2013-02-09 12:00:00,
2013-02-09 06:47:00,31.6,29.0,30.05,ESE,107,10.0,10.0,90,0.00,,---,0.00,VWS V14.01,2013-02-09 12:47:00,
2013-02-09 06:52:00,31.6,29.0,30.05,ESE,118,12.0,13.0,90,0.00,,---,0.00,VWS V14.01,2013-02-09 12:52:00,
2013-02-09 06:57:00,31.6,29.0,30.05,ESE,103,8.0,13.0,90,0.00,,---,0.00,VWS V14.01,2013-02-09 12:57:00,
2013-02-09 06:58:00,31.6,29.0,30.05,ESE,106,8.0,13.0,90,0.00,,---,0.00,VWS V14.01,2013-02-09 12:58:00,
2013-02-09 07:00:00,31.6,29.0,30.05,ESE,111,11.0,11.0,90,0.00,,---,0.00,VWS V14.01,2013-02-09 13:00:00,
2013-02-09 07:02:00,31.6,29.0,30.05,ESE,120,11.0,14.0,90,0.00,,---,0.00,VWS V14.01,2013-02-09 13:02:00,
2013-02-09 07:03:00,31.8,29.2,30.05,ESE,104,11.0,15.0,90,0.00,,---,0.00,VWS V14.01,2013-02-09 13:03:00,
2013-02-09 07:07:00,31.8,28.9,30.05,ESE,115,10.0,15.0,89,0.00,,---,0.00,VWS V14.01,2013-02-09 13:07:00,
2013-02-09 07:08:00,31.8,28.9,30.05,ESE,113,10.0,15.0,89,0.00,,---,0.00,VWS V14.01,2013-02-09 13:08:00,
2013-02-09 07:12:00,31.8,29.2,30.05,ESE,110,11.0,16.0,90,0.00,,---,0.00,VWS V14.01,2013-02-09 13:12:00,
2013-02-09 07:13:00,31.8,29.2,30.05,ESE,115,12.0,16.0,90,0.00,,---,0.00,VWS V14.01,2013-02-09 13:13:00,
2013-02-09 07:17:00,31.8,28.9,30.05,ESE,118,11.0,13.0,89,0.00,,---,0.00,VWS V14.01,2013-02-09 13:17:00,
2013-02-09 07:18:00,31.8,28.9,30.05,ESE,109,12.0,13.0,89,0.00,,---,0.00,VWS V14.01,2013-02-09 13:18:00,
2013-02-09 07:19:00,31.8,28.9,30.05,ESE,109,12.0,13.0,89,0.00,,---,0.00,VWS V14.01,2013-02-09 13:19:00,
2013-02-09 07:23:00,31.8,29.2,30.05,East,96,13.0,13.0,90,0.00,,---,0.00,VWS V14.01,2013-02-09 13:23:00,
2013-02-09 07:24:00,31.9,29.0,30.05,ESE,106,10.0,13.0,89,0.00,,---,0.00,VWS V14.01,2013-02-09 13:24:00,
2013-02-09 07:28:00,31.9,29.0,30.05,ESE,117,12.0,14.0,89,0.00,,---,0.00,VWS V14.01,2013-02-09 13:28:00,
2013-02-09 07:29:00,31.9,29.0,30.05,ESE,107,13.0,14.0,89,0.00,,---,0.00,VWS V14.01,2013-02-09 13:29:00,
2013-02-09 07:30:00,31.8,28.9,30.05,ESE,108,10.0,16.0,89,0.00,,---,0.00,VWS V14.01,2013-02-09 13:30:00,
2013-02-09 07:33:00,31.9,29.0,30.05,ESE,105,9.0,14.0,89,0.00,,---,0.00,VWS V14.01,2013-02-09 13:33:00,
2013-02-09 07:34:00,31.9,29.0,30.05,East,101,9.0,14.0,89,0.00,,---,0.00,VWS V14.01,2013-02-09 13:34:00,
2013-02-09 07:38:00,32.1,29.2,30.05,ESE,110,10.0,14.0,89,0.00,,---,0.00,VWS V14.01,2013-02-09 13:38:00,
2013-02-09 07:39:00,32.1,29.2,30.05,ESE,122,12.0,14.0,89,0.00,,---,0.00,VWS V14.01,2013-02-09 13:39:00,
2013-02-09 07:40:00,32.1,29.2,30.05,ESE,110,11.0,14.0,89,0.00,,---,0.00,VWS V14.01,2013-02-09 13:40:00,
2013-02-09 07:44:00,32.1,29.2,30.05,ESE,119,10.0,14.0,89,0.00,,---,0.00,VWS V14.01,2013-02-09 13:44:00,
2013-02-09 07:45:00,32.1,29.2,30.05,ESE,106,6.0,14.0,89,0.00,,---,0.00,VWS V14.01,2013-02-09 13:45:00,
2013-02-09 07:49:00,32.2,29.3,30.05,SE,126,9.0,14.0,89,0.00,,---,0.00,VWS V14.01,2013-02-09 13:49:00,
2013-02-09 07:50:00,32.2,29.3,30.05,ESE,117,10.0,14.0,89,0.00,,---,0.00,VWS V14.01,2013-02-09 13:50:00,
2013-02-09 07:51:00,32.2,29.3,30.05,ESE,105,10.0,14.0,89,0.00,,---,0.00,VWS V14.01,2013-02-09 13:51:00,
2013-02-09 07:55:00,32.2,29.3,30.05,ESE,110,13.0,14.0,89,0.00,,---,0.00,VWS V14.01,2013-02-09 13:55:00,
2013-02-09 07:56:00,32.2,29.3,30.05,ESE,120,12.0,14.0,89,0.00,,---,0.00,VWS V14.01,2013-02-09 13:56:00,
2013-02-09 08:00:00,32.4,29.5,30.05,ESE,103,11.0,16.0,89,0.00,,---,0.00,VWS V14.01,2013-02-09 14:00:00,
2013-02-09 08:01:00,32.4,29.5,30.05,East,101,11.0,16.0,89,0.00,,---,0.00,VWS V14.01,2013-02-09 14:01:00,
2013-02-09 08:02:00,32.4,29.5,30.05,SE,134,11.0,16.0,89,0.00,,---,0.00,VWS V14.01,2013-02-09 14:02:00,
2013-02-09 08:06:00,32.7,29.8,30.05,ESE,114,13.0,16.0,89,0.00,,---,0.00,VWS V14.01,2013-02-09 14:06:00,
2013-02-09 08:07:00,32.7,29.5,30.05,ESE,105,9.0,16.0,88,0.00,,---,0.00,VWS V14.01,2013-02-09 14:07:00,
2013-02-09 08:11:00,32.7,29.5,30.05,ESE,108,9.0,16.0,88,0.00,,---,0.00,VWS V14.01,2013-02-09 14:11:00,
2013-02-09 08:12:00,32.7,29.5,30.05,ESE,111,14.0,16.0,88,0.00,,---,0.00,VWS V14.01,2013-02-09 14:12:00,
2013-02-09 08:17:00,32.8,29.6,30.05,ESE,110,9.0,16.0,88,0.00,,---,0.00,VWS V14.01,2013-02-09 14:17:00,
2013-02-09 08:22:00,32.9,29.7,30.05,ESE,108,9.0,15.0,88,0.00,,---,0.00,VWS V14.01,2013-02-09 14:22:00,
2013-02-09 08:23:00,32.9,29.7,30.05,ESE,111,10.0,15.0,88,0.00,,---,0.00,VWS V14.01,2013-02-09 14:23:00,
2013-02-09 08:27:00,33.1,29.9,30.05,East,98,9.0,15.0,88,0.00,,---,0.00,VWS V14.01,2013-02-09 14:27:00,
2013-02-09 08:28:00,33.1,29.9,30.05,ESE,110,10.0,15.0,88,0.00,,---,0.00,VWS V14.01,2013-02-09 14:28:00,
2013-02-09 08:30:00,32.8,29.6,30.05,ESE,117,11.0,16.0,88,0.00,,---,0.00,VWS V14.01,2013-02-09 14:30:00,
2013-02-09 08:32:00,33.1,29.9,30.05,ESE,109,11.0,15.0,88,0.00,,---,0.00,VWS V14.01,2013-02-09 14:32:00,
2013-02-09 08:33:00,33.1,29.9,30.05,ESE,106,10.0,15.0,88,0.00,,---,0.00,VWS V14.01,2013-02-09 14:33:00,
2013-02-09 08:37:00,33.2,30.0,30.05,ESE,117,13.0,16.0,88,0.00,,---,0.00,VWS V14.01,2013-02-09 14:37:00,
2013-02-09 08:38:00,33.2,30.0,30.05,ESE,109,10.0,16.0,88,0.00,,---,0.00,VWS V14.01,2013-02-09 14:38:00,
2013-02-09 08:39:00,33.2,30.0,30.05,ESE,120,15.0,16.0,88,0.00,,---,0.00,VWS V14.01,2013-02-09 14:39:00,
2013-02-09 08:43:00,33.2,30.0,30.05,ESE,115,13.0,16.0,88,0.00,,---,0.00,VWS V14.01,2013-02-09 14:43:00,
2013-02-09 08:44:00,33.4,30.2,30.05,ESE,105,12.0,16.0,88,0.00,,---,0.00,VWS V14.01,2013-02-09 14:44:00,
2013-02-09 08:45:00,33.4,30.2,30.05,ESE,107,15.0,17.0,88,0.00,,---,0.00,VWS V14.01,2013-02-09 14:45:00,
2013-02-09 08:48:00,33.4,30.0,30.04,ESE,112,14.0,14.0,87,0.00,,---,0.00,VWS V14.01,2013-02-09 14:48:00,
2013-02-09 08:49:00,33.4,30.2,30.04,ESE,110,15.0,15.0,88,0.00,,---,0.00,VWS V14.01,2013-02-09 14:49:00,
2013-02-09 08:50:00,33.4,30.2,30.04,ESE,122,14.0,16.0,88,0.00,,---,0.00,VWS V14.01,2013-02-09 14:50:00,
2013-02-09 08:54:00,33.4,30.2,30.04,ESE,113,11.0,16.0,88,0.00,,---,0.00,VWS V14.01,2013-02-09 14:54:00,
2013-02-09 08:55:00,33.4,30.2,30.04,ESE,120,9.0,16.0,88,0.00,,---,0.00,VWS V14.01,2013-02-09 14:55:00,
2013-02-09 08:59:00,33.4,30.2,30.04,ESE,114,13.0,16.0,88,0.00,,---,0.00,VWS V14.01,2013-02-09 14:59:00,
2013-02-09 09:00:00,33.5,30.3,30.04,ESE,117,11.0,11.0,88,0.00,,---,0.00,VWS V14.01,2013-02-09 15:00:00,
2013-02-09 09:04:00,33.5,30.3,30.04,East,96,14.0,14.0,88,0.00,,---,0.00,VWS V14.01,2013-02-09 15:04:00,
2013-02-09 09:05:00,33.7,30.5,30.04,SE,126,13.0,14.0,88,0.00,,---,0.00,VWS V14.01,2013-02-09 15:05:00,
2013-02-09 09:09:00,33.7,30.5,30.04,East,91,13.0,17.0,88,0.00,,---,0.00,VWS V14.01,2013-02-09 15:09:00,
2013-02-09 09:10:00,33.7,30.5,30.04,ESE,108,13.0,17.0,88,0.00,,---,0.00,VWS V14.01,2013-02-09 15:10:00,
2013-02-09 09:11:00,33.8,30.4,30.04,SE,134,13.0,17.0,87,0.00,,---,0.00,VWS V14.01,2013-02-09 15:11:00,
2013-02-09 09:14:00,33.8,30.4,30.04,ESE,103,8.0,17.0,87,0.00,,---,0.00,VWS V14.01,2013-02-09 15:14:00,
2013-02-09 09:15:00,34.0,30.5,30.04,ESE,104,12.0,17.0,87,0.00,,---,0.00,VWS V14.01,2013-02-09 15:15:00,
2013-02-09 09:16:00,34.0,30.5,30.03,ESE,103,12.0,17.0,87,0.00,,---,0.00,VWS V14.01,2013-02-09 15:16:00,
2013-02-09 09:19:00,34.1,30.6,30.03,ESE,111,11.0,17.0,87,0.00,,---,0.00,VWS V14.01,2013-02-09 15:19:00,
2013-02-09 09:20:00,34.1,30.6,30.03,ESE,113,7.0,17.0,87,0.00,,---,0.00,VWS V14.01,2013-02-09 15:20:00,
2013-02-09 09:21:00,34.1,30.6,30.03,SE,140,14.0,17.0,87,0.00,,---,0.00,VWS V14.01,2013-02-09 15:21:00,
2013-02-09 09:24:00,34.3,30.8,30.03,ESE,108,11.0,17.0,87,0.00,,---,0.00,VWS V14.01,2013-02-09 15:24:00,
2013-02-09 09:25:00,34.3,30.8,30.03,ESE,109,12.0,17.0,87,0.00,,---,0.00,VWS V14.01,2013-02-09 15:25:00,
2013-02-09 09:26:00,34.4,30.9,30.03,ESE,112,14.0,18.0,87,0.00,,---,0.00,VWS V14.01,2013-02-09 15:26:00,
2013-02-09 09:30:00,34.6,30.9,30.03,ESE,104,11.0,19.0,86,0.00,,---,0.00,VWS V14.01,2013-02-09 15:30:00,
2013-02-09 09:32:00,34.7,31.0,30.03,SE,125,12.0,19.0,86,0.00,,---,0.00,VWS V14.01,2013-02-09 15:32:00,
2013-02-09 09:35:00,34.9,31.1,30.03,ESE,117,10.0,19.0,86,0.00,,---,0.00,VWS V14.01,2013-02-09 15:35:00,
2013-02-09 09:36:00,34.9,31.1,30.03,ESE,109,9.0,19.0,86,0.00,,---,0.00,VWS V14.01,2013-02-09 15:36:00,
2013-02-09 09:37:00,35.0,31.2,30.03,ESE,105,11.0,19.0,86,0.00,,---,0.00,VWS V14.01,2013-02-09 15:37:00,
2013-02-09 09:41:00,35.2,31.1,30.03,ESE,113,13.0,19.0,85,0.00,,---,0.00,VWS V14.01,2013-02-09 15:41:00,
2013-02-09 09:43:00,35.3,31.2,30.03,East,98,14.0,19.0,85,0.00,,---,0.00,VWS V14.01,2013-02-09 15:43:00,
2013-02-09 09:46:00,35.6,31.5,30.03,SE,124,16.0,19.0,85,0.00,,---,0.00,VWS V14.01,2013-02-09 15:46:00,
2013-02-09 09:48:00,35.6,31.5,30.03,ESE,113,15.0,18.0,85,0.00,,---,0.00,VWS V14.01,2013-02-09 15:48:00,
2013-02-09 09:51:00,35.9,31.5,30.03,SE,124,11.0,18.0,84,0.00,,---,0.00,VWS V14.01,2013-02-09 15:51:00,
2013-02-09 09:52:00,35.9,31.5,30.03,ESE,115,13.0,18.0,84,0.00,,---,0.00,VWS V14.01,2013-02-09 15:52:00,
2013-02-09 09:53:00,35.9,31.5,30.03,ESE,118,15.0,18.0,84,0.00,,---,0.00,VWS V14.01,2013-02-09 15:53:00,
2013-02-09 09:56:00,36.2,31.8,30.03,SE,134,15.0,19.0,84,0.00,,---,0.00,VWS V14.01,2013-02-09 15:56:00,
2013-02-09 09:57:00,36.2,31.8,30.03,ESE,116,13.0,19.0,84,0.00,,---,0.00,VWS V14.01,2013-02-09 15:57:00,
2013-02-09 09:58:00,36.3,31.9,30.03,ESE,117,15.0,19.0,84,0.00,,---,0.00,VWS V14.01,2013-02-09 15:58:00,
2013-02-09 10:00:00,35.6,31.5,30.03,SE,134,12.0,19.0,85,0.00,,---,0.00,VWS V14.01,2013-02-09 16:00:00,
2013-02-09 10:01:00,36.5,32.1,30.02,East,94,10.0,19.0,84,0.00,,---,0.00,VWS V14.01,2013-02-09 16:01:00,
2013-02-09 10:02:00,36.6,32.2,30.02,ESE,117,13.0,19.0,84,0.00,,---,0.00,VWS V14.01,2013-02-09 16:02:00,
2013-02-09 10:04:00,36.8,32.1,30.02,ESE,116,14.0,19.0,83,0.00,,---,0.00,VWS V14.01,2013-02-09 16:04:00,
2013-02-09 10:06:00,36.9,32.2,30.02,SE,129,14.0,19.0,83,0.00,,---,0.00,VWS V14.01,2013-02-09 16:06:00,
2013-02-09 10:07:00,37.0,32.3,30.02,ESE,121,12.0,19.0,83,0.00,,---,0.00,VWS V14.01,2013-02-09 16:07:00,
2013-02-09 10:09:00,37.2,32.5,30.02,ESE,116,13.0,19.0,83,0.00,,---,0.00,VWS V14.01,2013-02-09 16:09:00,
2013-02-09 10:12:00,37.3,32.3,30.02,SE,130,13.0,20.0,82,0.00,,---,0.00,VWS V14.01,2013-02-09 16:12:00,
2013-02-09 10:13:00,37.5,32.5,30.02,ESE,122,11.0,20.0,82,0.00,,---,0.00,VWS V14.01,2013-02-09 16:13:00,
2013-02-09 10:15:00,37.6,32.6,30.02,SE,129,17.0,20.0,82,0.00,,---,0.00,VWS V14.01,2013-02-09 16:15:00,
2013-02-09 10:17:00,37.8,32.8,30.02,SE,131,12.0,20.0,82,0.00,,---,0.00,VWS V14.01,2013-02-09 16:17:00,
2013-02-09 10:18:00,37.9,32.9,30.02,ESE,117,11.0,15.0,82,0.00,,---,0.00,VWS V14.01,2013-02-09 16:18:00,
2013-02-09 10:20:00,38.2,33.2,30.02,SE,143,17.0,20.0,82,0.00,,---,0.00,VWS V14.01,2013-02-09 16:20:00,
2013-02-09 10:22:00,38.2,32.9,30.02,SE,127,14.0,20.0,81,0.00,,---,0.00,VWS V14.01,2013-02-09 16:22:00,
2013-02-09 10:23:00,38.3,33.0,30.02,SE,125,16.0,20.0,81,0.00,,---,0.00,VWS V14.01,2013-02-09 16:23:00,
2013-02-09 10:25:00,38.6,33.6,30.02,ESE,115,17.0,20.0,82,0.00,,---,0.00,VWS V14.01,2013-02-09 16:25:00,
2013-02-09 10:27:00,38.8,33.5,30.02,ESE,116,11.0,20.0,81,0.00,,---,0.00,VWS V14.01,2013-02-09 16:27:00,
2013-02-09 10:28:00,38.9,33.6,30.02,ESE,122,11.0,20.0,81,0.00,,---,0.00,VWS V14.01,2013-02-09 16:28:00,
2013-02-09 10:30:00,39.1,33.5,30.02,SE,126,14.0,22.0,80,0.00,,---,0.00,VWS V14.01,2013-02-09 16:30:00,
2013-02-09 10:33:00,39.3,33.7,30.01,ESE,117,14.0,22.0,80,0.00,,---,0.00,VWS V14.01,2013-02-09 16:33:00,
2013-02-09 10:34:00,39.3,33.7,30.01,ESE,119,21.0,22.0,80,0.00,,---,0.00,VWS V14.01,2013-02-09 16:34:00,
2013-02-09 10:35:00,39.5,33.5,30.01,ESE,110,18.0,23.0,79,0.00,,---,0.00,VWS V14.01,2013-02-09 16:35:00,
2013-02-09 10:38:00,39.8,33.8,30.01,ESE,113,17.0,23.0,79,0.00,,---,0.00,VWS V14.01,2013-02-09 16:38:00,
2013-02-09 10:39:00,39.8,33.8,30.01,ESE,120,20.0,23.0,79,0.00,,---,0.00,VWS V14.01,2013-02-09 16:39:00,
2013-02-09 10:40:00,39.8,33.5,30.01,SE,126,17.0,23.0,78,0.00,,---,0.00,VWS V14.01,2013-02-09 16:40:00,
2013-02-09 10:44:00,39.9,33.6,30.01,ESE,110,12.0,23.0,78,0.00,,---,0.00,VWS V14.01,2013-02-09 16:44:00,
2013-02-09 10:46:00,40.1,33.8,30.01,ESE,113,8.0,23.0,78,0.00,,---,0.00,VWS V14.01,2013-02-09 16:46:00,
2013-02-09 10:49:00,40.2,33.9,30.00,ESE,110,15.0,19.0,78,0.00,,---,0.00,VWS V14.01,2013-02-09 16:49:00,
2013-02-09 10:51:00,40.2,33.6,30.00,ESE,109,16.0,19.0,77,0.00,,---,0.00,VWS V14.01,2013-02-09 16:51:00,
2013-02-09 10:54:00,40.5,34.2,30.00,ESE,121,14.0,19.0,78,0.00,,---,0.00,VWS V14.01,2013-02-09 16:54:00,
2013-02-09 10:56:00,40.6,34.3,30.00,SE,138,18.0,21.0,78,0.00,,---,0.00,VWS V14.01,2013-02-09 16:56:00,
2013-02-09 10:57:00,40.8,34.2,30.00,ESE,111,16.0,21.0,77,0.00,,---,0.00,VWS V14.01,2013-02-09 16:57:00,
2013-02-09 11:00:00,41.1,34.5,30.00,ESE,106,17.0,21.0,77,0.00,,---,0.00,VWS V14.01,2013-02-09 17:00:00,
2013-02-09 11:01:00,41.1,34.5,29.99,ESE,108,15.0,21.0,77,0.00,,---,0.00,VWS V14.01,2013-02-09 17:01:00,
2013-02-09 11:02:00,41.2,34.2,29.99,ESE,108,14.0,21.0,76,0.00,,---,0.00,VWS V14.01,2013-02-09 17:02:00,
2013-02-09 11:05:00,41.5,35.2,29.99,SE,135,17.0,21.0,78,0.00,,---,0.00,VWS V14.01,2013-02-09 17:05:00,
2013-02-09 11:06:00,41.6,34.6,29.99,SE,132,14.0,21.0,76,0.00,,---,0.00,VWS V14.01,2013-02-09 17:06:00,
2013-02-09 11:07:00,41.8,34.8,29.99,SE,127,16.0,21.0,76,0.00,,---,0.00,VWS V14.01,2013-02-09 17:07:00,
2013-02-09 11:10:00,42.1,35.4,29.99,ESE,117,14.0,21.0,77,0.00,,---,0.00,VWS V14.01,2013-02-09 17:10:00,
2013-02-09 11:11:00,42.2,34.9,29.99,ESE,117,13.0,21.0,75,0.00,,---,0.00,VWS V14.01,2013-02-09 17:11:00,
2013-02-09 11:12:00,42.3,35.3,29.99,ESE,117,15.0,21.0,76,0.00,,---,0.00,VWS V14.01,2013-02-09 17:12:00,
2013-02-09 11:15:00,43.2,36.5,29.99,East,94,10.0,21.0,77,0.00,,---,0.00,VWS V14.01,2013-02-09 17:15:00,
2013-02-09 11:16:00,43.3,35.9,29.99,ESE,102,12.0,21.0,75,0.00,,---,0.00,VWS V14.01,2013-02-09 17:16:00,
2013-02-09 11:17:00,43.5,36.1,29.99,SE,130,15.0,16.0,75,0.00,,---,0.00,VWS V14.01,2013-02-09 17:17:00,
2013-02-09 11:18:00,43.5,36.1,29.99,SE,130,14.0,16.0,75,0.00,,---,0.00,VWS V14.01,2013-02-09 17:18:00,
2013-02-09 11:20:00,43.6,35.5,29.99,SE,131,19.0,21.0,73,0.00,,---,0.00,VWS V14.01,2013-02-09 17:20:00,
2013-02-09 11:21:00,43.5,35.4,29.99,SSE,148,19.0,21.0,73,0.00,,---,0.00,VWS V14.01,2013-02-09 17:21:00,
2013-02-09 11:23:00,43.6,35.9,29.99,SE,141,18.0,21.0,74,0.00,,---,0.00,VWS V14.01,2013-02-09 17:23:00,
2013-02-09 11:24:00,43.8,35.7,29.99,SE,142,21.0,23.0,73,0.00,,---,0.00,VWS V14.01,2013-02-09 17:24:00,
2013-02-09 11:26:00,44.1,35.7,29.99,SE,140,16.0,23.0,72,0.00,,---,0.00,VWS V14.01,2013-02-09 17:26:00,
2013-02-09 11:27:00,44.2,36.5,29.99,ESE,118,18.0,23.0,74,0.00,,---,0.00,VWS V14.01,2013-02-09 17:27:00,
2013-02-09 11:28:00,44.3,36.2,29.99,SE,129,15.0,23.0,73,0.00,,---,0.00,VWS V14.01,2013-02-09 17:28:00,
2013-02-09 11:29:00,44.2,36.1,29.99,SE,126,18.0,23.0,73,0.00,,---,0.00,VWS V14.01,2013-02-09 17:29:00,
2013-02-09 11:30:00,43.3,36.3,29.99,SE,124,12.0,21.0,76,0.00,,---,0.00,VWS V14.01,2013-02-09 17:30:00,
2013-02-09 11:31:00,44.3,36.5,29.97,ESE,122,12.0,23.0,74,0.00,,---,0.00,VWS V14.01,2013-02-09 17:31:00,
2013-02-09 11:32:00,44.5,36.0,29.97,ESE,120,17.0,23.0,72,0.00,,---,0.00,VWS V14.01,2013-02-09 17:32:00,
2013-02-09 11:33:00,44.3,35.9,29.97,ESE,106,17.0,23.0,72,0.00,,---,0.00,VWS V14.01,2013-02-09 17:33:00,
2013-02-09 11:34:00,44.5,36.0,29.97,SE,129,17.0,23.0,72,0.00,,---,0.00,VWS V14.01,2013-02-09 17:34:00,
2013-02-09 11:36:00,44.5,36.4,29.97,SE,127,18.0,23.0,73,0.00,,---,0.00,VWS V14.01,2013-02-09 17:36:00,
2013-02-09 11:37:00,44.5,36.0,29.97,ESE,110,20.0,23.0,72,0.00,,---,0.00,VWS V14.01,2013-02-09 17:37:00,
2013-02-09 11:39:00,44.3,35.5,29.97,SE,140,19.0,23.0,71,0.00,,---,0.00,VWS V14.01,2013-02-09 17:39:00,
2013-02-09 11:40:00,44.3,36.2,29.97,ESE,121,19.0,23.0,73,0.00,,---,0.00,VWS V14.01,2013-02-09 17:40:00,
2013-02-09 11:42:00,44.3,35.9,29.97,SE,128,13.0,23.0,72,0.00,,---,0.00,VWS V14.01,2013-02-09 17:42:00,
2013-02-09 11:44:00,44.3,35.9,29.97,SE,125,16.0,23.0,72,0.00,,---,0.00,VWS V14.01,2013-02-09 17:44:00,
2013-02-09 11:45:00,44.3,35.9,29.97,SE,129,16.0,23.0,72,0.00,,---,0.00,VWS V14.01,2013-02-09 17:45:00,
2013-02-09 11:47:00,44.5,36.4,29.96,SE,136,16.0,16.0,73,0.00,,---,0.00,VWS V14.01,2013-02-09 17:47:00,
2013-02-09 11:49:00,44.6,35.4,29.96,SE,144,17.0,20.0,70,0.00,,---,0.00,VWS V14.01,2013-02-09 17:49:00,
2013-02-09 11:51:00,44.6,35.8,29.96,ESE,117,12.0,20.0,71,0.00,,---,0.00,VWS V14.01,2013-02-09 17:51:00,
2013-02-09 11:52:00,44.5,35.3,29.96,ESE,115,20.0,23.0,70,0.00,,---,0.00,VWS V14.01,2013-02-09 17:52:00,
2013-02-09 11:53:00,44.5,35.3,29.96,SE,129,17.0,23.0,70,0.00,,---,0.00,VWS V14.01,2013-02-09 17:53:00,
2013-02-09 11:54:00,44.3,35.2,29.96,ESE,123,18.0,23.0,70,0.00,,---,0.00,VWS V14.01,2013-02-09 17:54:00,
2013-02-09 11:56:00,44.3,35.9,29.96,SE,134,19.0,23.0,72,0.00,,---,0.00,VWS V14.01,2013-02-09 17:56:00,
2013-02-09 11:57:00,44.2,35.8,29.96,SE,143,13.0,23.0,72,0.00,,---,0.00,VWS V14.01,2013-02-09 17:57:00,
2013-02-09 11:58:00,44.2,35.8,29.96,ESE,120,13.0,23.0,72,0.00,,---,0.00,VWS V14.01,2013-02-09 17:58:00,
2013-02-09 11:59:00,44.3,36.2,29.96,SE,146,13.0,23.0,73,0.00,,---,0.00,VWS V14.01,2013-02-09 17:59:00,
2013-02-09 12:00:00,44.5,36.4,29.96,SE,133,16.0,23.0,73,0.00,,---,0.00,VWS V14.01,2013-02-09 18:00:00,
2013-02-09 12:01:00,44.6,36.2,29.95,SE,135,15.0,16.0,72,0.00,,---,0.00,VWS V14.01,2013-02-09 18:01:00,
2013-02-09 12:03:00,44.9,36.8,29.95,ESE,103,13.0,16.0,73,0.00,,---,0.00,VWS V14.01,2013-02-09 18:03:00,
2013-02-09 12:04:00,45.1,37.0,29.95,ESE,115,17.0,18.0,73,0.00,,---,0.00,VWS V14.01,2013-02-09 18:04:00,
2013-02-09 12:06:00,45.2,36.7,29.95,ESE,114,12.0,18.0,72,0.00,,---,0.00,VWS V14.01,2013-02-09 18:06:00,
2013-02-09 12:08:00,45.4,36.2,29.95,ESE,116,19.0,19.0,70,0.00,,---,0.00,VWS V14.01,2013-02-09 18:08:00,
2013-02-09 12:09:00,45.4,36.9,29.95,ESE,114,15.0,19.0,72,0.00,,---,0.00,VWS V14.01,2013-02-09 18:09:00,
2013-02-09 12:11:00,45.5,36.7,29.95,SE,136,20.0,24.0,71,0.00,,---,0.00,VWS V14.01,2013-02-09 18:11:00,
2013-02-09 12:13:00,45.5,36.3,29.95,SE,139,18.0,24.0,70,0.00,,---,0.00,VWS V14.01,2013-02-09 18:13:00,
2013-02-09 12:14:00,45.5,37.0,29.95,SE,143,16.0,24.0,72,0.00,,---,0.00,VWS V14.01,2013-02-09 18:14:00,
2013-02-09 12:17:00,46.0,37.1,29.94,ESE,115,19.0,19.0,71,0.00,,---,0.00,VWS V14.01,2013-02-09 18:17:00,
2013-02-09 12:18:00,46.1,37.6,29.94,SE,124,13.0,22.0,72,0.00,,---,0.00,VWS V14.01,2013-02-09 18:18:00,
2013-02-09 12:19:00,46.2,37.3,29.94,ESE,114,16.0,22.0,71,0.00,,---,0.00,VWS V14.01,2013-02-09 18:19:00,
2013-02-09 12:20:00,46.2,37.3,29.94,ESE,114,15.0,22.0,71,0.00,,---,0.00,VWS V14.01,2013-02-09 18:20:00,
2013-02-09 12:22:00,46.5,37.6,29.94,SE,142,18.0,22.0,71,0.00,,---,0.00,VWS V14.01,2013-02-09 18:22:00,
2013-02-09 12:24:00,46.5,37.6,29.94,SE,139,15.0,22.0,71,0.00,,---,0.00,VWS V14.01,2013-02-09 18:24:00,
2013-02-09 12:25:00,46.7,38.2,29.94,SE,134,18.0,22.0,72,0.00,,---,0.00,VWS V14.01,2013-02-09 18:25:00,
2013-02-09 12:27:00,46.8,37.5,29.94,SE,143,20.0,22.0,70,0.00,,---,0.00,VWS V14.01,2013-02-09 18:27:00,
2013-02-09 12:29:00,47.0,38.1,29.94,ESE,119,20.0,22.0,71,0.00,,---,0.00,VWS V14.01,2013-02-09 18:29:00,
2013-02-09 12:30:00,47.0,38.1,29.94,ESE,120,19.0,22.0,71,0.00,,---,0.00,VWS V14.01,2013-02-09 18:30:00,
2013-02-09 12:33:00,47.0,37.7,29.92,SE,136,20.0,24.0,70,0.00,,---,0.00,VWS V14.01,2013-02-09 18:33:00,
2013-02-09 12:34:00,47.1,37.8,29.92,SE,127,20.0,24.0,70,0.00,,---,0.00,VWS V14.01,2013-02-09 18:34:00,
2013-02-09 12:35:00,47.1,38.2,29.92,SE,129,14.0,24.0,71,0.00,,---,0.00,VWS V14.01,2013-02-09 18:35:00,
2013-02-09 12:39:00,47.4,37.4,29.92,SSE,155,21.0,24.0,68,0.00,,---,0.00,VWS V14.01,2013-02-09 18:39:00,
2013-02-09 12:40:00,47.4,37.8,29.92,ESE,108,11.0,24.0,69,0.00,,---,0.00,VWS V14.01,2013-02-09 18:40:00,
2013-02-09 12:45:00,48.0,38.7,29.92,SE,139,15.0,24.0,70,0.00,,---,0.00,VWS V14.01,2013-02-09 18:45:00,
2013-02-09 12:50:00,48.3,39.0,29.91,ESE,122,16.0,18.0,70,0.00,,---,0.00,VWS V14.01,2013-02-09 18:50:00,
2013-02-09 12:51:00,48.3,38.6,29.91,ESE,120,13.0,20.0,69,0.00,,---,0.00,VWS V14.01,2013-02-09 18:51:00,
2013-02-09 12:55:00,48.8,38.3,29.91,East,100,12.0,20.0,67,0.00,,---,0.00,VWS V14.01,2013-02-09 18:55:00,
2013-02-09 12:56:00,48.9,39.9,29.91,ESE,121,14.0,20.0,71,0.00,,---,0.00,VWS V14.01,2013-02-09 18:56:00,
2013-02-09 13:00:00,49.1,38.6,29.91,SE,126,15.0,23.0,67,0.00,,---,0.00,VWS V14.01,2013-02-09 19:00:00,
2013-02-09 13:01:00,49.1,39.8,29.90,SE,124,18.0,23.0,70,0.00,,---,0.00,VWS V14.01,2013-02-09 19:01:00,
2013-02-09 13:06:00,49.4,39.3,29.90,ESE,112,13.0,23.0,68,0.00,,---,0.00,VWS V14.01,2013-02-09 19:06:00,
2013-02-09 13:11:00,49.4,38.9,29.90,SE,129,17.0,23.0,67,0.00,,---,0.00,VWS V14.01,2013-02-09 19:11:00,
2013-02-09 13:12:00,49.2,38.3,29.90,SE,124,13.0,23.0,66,0.00,,---,0.00,VWS V14.01,2013-02-09 19:12:00,
2013-02-09 13:16:00,49.2,39.1,29.88,ESE,118,13.0,23.0,68,0.00,,---,0.00,VWS V14.01,2013-02-09 19:16:00,
2013-02-09 13:17:00,49.2,39.1,29.88,SE,127,13.0,23.0,68,0.00,,---,0.00,VWS V14.01,2013-02-09 19:17:00,
2013-02-09 13:21:00,49.4,40.0,29.88,ESE,106,16.0,19.0,70,0.00,,---,0.00,VWS V14.01,2013-02-09 19:21:00,
2013-02-09 13:22:00,49.2,39.1,29.88,ESE,117,13.0,19.0,68,0.00,,---,0.00,VWS V14.01,2013-02-09 19:22:00,
2013-02-09 13:26:00,49.2,38.3,29.88,SE,129,19.0,21.0,66,0.00,,---,0.00,VWS V14.01,2013-02-09 19:26:00,
2013-02-09 13:27:00,49.2,38.3,29.88,SE,130,17.0,21.0,66,0.00,,---,0.00,VWS V14.01,2013-02-09 19:27:00,
2013-02-09 13:28:00,49.2,38.3,29.88,ESE,117,13.0,21.0,66,0.00,,---,0.00,VWS V14.01,2013-02-09 19:28:00,
2013-02-09 13:30:00,49.2,39.1,29.88,SE,146,12.0,23.0,68,0.00,,---,0.00,VWS V14.01,2013-02-09 19:30:00,
2013-02-09 13:31:00,49.2,38.7,29.86,SE,141,17.0,21.0,67,0.00,,---,0.00,VWS V14.01,2013-02-09 19:31:00,
2013-02-09 13:32:00,49.4,38.9,29.86,ESE,122,9.0,21.0,67,0.00,,---,0.00,VWS V14.01,2013-02-09 19:32:00,
2013-02-09 13:34:00,49.6,38.7,29.86,SE,146,14.0,21.0,66,0.00,,---,0.00,VWS V14.01,2013-02-09 19:34:00,
2013-02-09 13:36:00,49.9,39.0,29.86,SSE,153,15.0,23.0,66,0.00,,---,0.00,VWS V14.01,2013-02-09 19:36:00,
2013-02-09 13:37:00,49.9,39.0,29.86,SE,135,15.0,23.0,66,0.00,,---,0.00,VWS V14.01,2013-02-09 19:37:00,
2013-02-09 13:39:00,50.1,38.8,29.86,ESE,114,14.0,23.0,65,0.00,,---,0.00,VWS V14.01,2013-02-09 19:39:00,
2013-02-09 13:42:00,50.1,38.8,29.86,ESE,121,15.0,23.0,65,0.00,,---,0.00,VWS V14.01,2013-02-09 19:42:00,
2013-02-09 13:45:00,50.1,39.2,29.86,ESE,115,15.0,23.0,66,0.00,,---,0.00,VWS V14.01,2013-02-09 19:45:00,
2013-02-09 13:47:00,50.4,39.5,29.85,ESE,120,20.0,23.0,66,0.00,,---,0.00,VWS V14.01,2013-02-09 19:47:00,
2013-02-09 13:48:00,50.2,38.9,29.85,SE,132,18.0,20.0,65,0.00,,---,0.00,VWS V14.01,2013-02-09 19:48:00,
2013-02-09 13:50:00,50.5,39.2,29.85,SE,124,20.0,20.0,65,0.00,,---,0.00,VWS V14.01,2013-02-09 19:50:00,
2013-02-09 13:52:00,50.5,39.2,29.85,ESE,119,21.0,22.0,65,0.00,,---,0.00,VWS V14.01,2013-02-09 19:52:00,
2013-02-09 13:53:00,50.5,39.2,29.85,SE,129,20.0,22.0,65,0.00,,---,0.00,VWS V14.01,2013-02-09 19:53:00,
2013-02-09 13:55:00,50.7,39.8,29.85,ESE,107,15.0,22.0,66,0.00,,---,0.00,VWS V14.01,2013-02-09 19:55:00,
2013-02-09 13:57:00,51.0,40.4,29.85,SE,141,19.0,22.0,67,0.00,,---,0.00,VWS V14.01,2013-02-09 19:57:00,
2013-02-09 13:58:00,51.0,40.1,29.85,ESE,122,16.0,22.0,66,0.00,,---,0.00,VWS V14.01,2013-02-09 19:58:00,
2013-02-09 13:59:00,51.0,39.3,29.85,SE,128,15.0,22.0,64,0.00,,---,0.00,VWS V14.01,2013-02-09 19:59:00,
2013-02-09 14:00:00,50.8,39.1,29.85,SE,141,17.0,22.0,64,0.00,,---,0.00,VWS V14.01,2013-02-09 20:00:00,
2013-02-09 14:03:00,50.8,39.5,29.85,SE,144,22.0,24.0,65,0.00,,---,0.00,VWS V14.01,2013-02-09 20:03:00,
2013-02-09 14:04:00,50.8,39.1,29.85,SE,139,14.0,24.0,64,0.00,,---,0.00,VWS V14.01,2013-02-09 20:04:00,
2013-02-09 14:06:00,51.1,39.8,29.85,ESE,105,14.0,24.0,65,0.00,,---,0.00,VWS V14.01,2013-02-09 20:06:00,
2013-02-09 14:08:00,51.1,39.0,29.85,SE,130,16.0,26.0,63,0.00,,---,0.00,VWS V14.01,2013-02-09 20:08:00,
2013-02-09 14:09:00,51.1,39.0,29.85,ESE,121,19.0,26.0,63,0.00,,---,0.00,VWS V14.01,2013-02-09 20:09:00,
2013-02-09 14:11:00,51.3,39.2,29.85,SE,124,14.0,26.0,63,0.00,,---,0.00,VWS V14.01,2013-02-09 20:11:00,
2013-02-09 14:13:00,51.6,40.2,29.85,ESE,105,15.0,26.0,65,0.00,,---,0.00,VWS V14.01,2013-02-09 20:13:00,
2013-02-09 14:14:00,51.7,40.7,29.85,SE,127,12.0,26.0,66,0.00,,---,0.00,VWS V14.01,2013-02-09 20:14:00,
2013-02-09 14:15:00,51.7,40.7,29.85,SE,128,16.0,26.0,66,0.00,,---,0.00,VWS V14.01,2013-02-09 20:15:00,
2013-02-09 14:16:00,51.9,39.7,29.84,SE,131,20.0,26.0,63,0.00,,---,0.00,VWS V14.01,2013-02-09 20:16:00,
2013-02-09 14:18:00,51.7,39.1,29.84,SE,141,12.0,19.0,62,0.00,,---,0.00,VWS V14.01,2013-02-09 20:18:00,
2013-02-09 14:20:00,51.7,39.1,29.84,SE,135,18.0,19.0,62,0.00,,---,0.00,VWS V14.01,2013-02-09 20:20:00,
2013-02-09 14:22:00,52.0,39.4,29.84,SE,142,23.0,26.0,62,0.00,,---,0.00,VWS V14.01,2013-02-09 20:22:00,
2013-02-09 14:23:00,51.9,39.3,29.84,SE,136,21.0,26.0,62,0.00,,---,0.00,VWS V14.01,2013-02-09 20:23:00,
2013-02-09 14:25:00,51.9,40.1,29.84,SE,141,20.0,26.0,64,0.00,,---,0.00,VWS V14.01,2013-02-09 20:25:00,
2013-02-09 14:29:00,52.0,40.6,29.84,SE,141,20.0,26.0,65,0.00,,---,0.00,VWS V14.01,2013-02-09 20:29:00,
2013-02-09 14:30:00,52.0,39.4,29.84,ESE,122,20.0,26.0,62,0.00,,---,0.00,VWS V14.01,2013-02-09 20:30:00,
2013-02-09 14:31:00,52.0,38.6,29.84,SE,146,19.0,26.0,60,0.00,,---,0.00,VWS V14.01,2013-02-09 20:31:00,
2013-02-09 14:34:00,51.7,39.1,29.83,ESE,119,18.0,26.0,62,0.00,,---,0.00,VWS V14.01,2013-02-09 20:34:00,
2013-02-09 14:35:00,51.6,38.6,29.83,SE,131,15.0,26.0,61,0.00,,---,0.00,VWS V14.01,2013-02-09 20:35:00,
2013-02-09 14:36:00,51.6,39.4,29.83,SE,140,16.0,26.0,63,0.00,,---,0.00,VWS V14.01,2013-02-09 20:36:00,
2013-02-09 14:39:00,51.6,39.0,29.83,SE,130,20.0,26.0,62,0.00,,---,0.00,VWS V14.01,2013-02-09 20:39:00,
2013-02-09 14:41:00,51.4,38.4,29.83,ESE,122,15.0,26.0,61,0.00,,---,0.00,VWS V14.01,2013-02-09 20:41:00,
2013-02-09 14:44:00,51.3,39.2,29.83,SE,124,14.0,26.0,63,0.00,,---,0.00,VWS V14.01,2013-02-09 20:44:00,
2013-02-09 14:46:00,51.4,39.7,29.83,SE,124,17.0,26.0,64,0.00,,---,0.00,VWS V14.01,2013-02-09 20:46:00,
2013-02-09 14:49:00,51.9,39.3,29.83,SE,125,18.0,25.0,62,0.00,,---,0.00,VWS V14.01,2013-02-09 20:49:00,
2013-02-09 14:51:00,51.7,39.1,29.83,SE,126,15.0,25.0,62,0.00,,---,0.00,VWS V14.01,2013-02-09 20:51:00,
2013-02-09 14:55:00,51.4,38.4,29.83,SE,146,17.0,25.0,61,0.00,,---,0.00,VWS V14.01,2013-02-09 20:55:00,
2013-02-09 14:56:00,51.4,39.2,29.83,SE,143,22.0,25.0,63,0.00,,---,0.00,VWS V14.01,2013-02-09 20:56:00,
2013-02-09 14:57:00,51.4,39.2,29.83,SSE,159,22.0,25.0,63,0.00,,---,0.00,VWS V14.01,2013-02-09 20:57:00,
2013-02-09 15:00:00,51.1,38.1,29.83,SE,130,24.0,24.0,61,0.00,,---,0.00,VWS V14.01,2013-02-09 21:00:00,
2013-02-09 15:01:00,51.0,38.0,29.82,SE,130,16.0,26.0,61,0.00,,---,0.00,VWS V14.01,2013-02-09 21:01:00,
2013-02-09 15:02:00,51.0,38.0,29.82,SE,134,17.0,26.0,61,0.00,,---,0.00,VWS V14.01,2013-02-09 21:02:00,
2013-02-09 15:05:00,50.7,38.2,29.82,ESE,113,16.0,26.0,62,0.00,,---,0.00,VWS V14.01,2013-02-09 21:05:00,
2013-02-09 15:06:00,50.7,38.6,29.82,ESE,123,13.0,26.0,63,0.00,,---,0.00,VWS V14.01,2013-02-09 21:06:00,
2013-02-09 15:07:00,50.7,38.6,29.82,ESE,116,16.0,26.0,63,0.00,,---,0.00,VWS V14.01,2013-02-09 21:07:00,
2013-02-09 15:11:00,50.5,37.6,29.82,ESE,120,18.0,28.0,61,0.00,,---,0.00,VWS V14.01,2013-02-09 21:11:00,
2013-02-09 15:12:00,50.5,38.0,29.82,SE,126,17.0,28.0,62,0.00,,---,0.00,VWS V14.01,2013-02-09 21:12:00,
2013-02-09 15:13:00,50.4,37.9,29.82,SE,136,18.0,28.0,62,0.00,,---,0.00,VWS V14.01,2013-02-09 21:13:00,
2013-02-09 15:16:00,50.4,38.3,29.82,ESE,120,22.0,28.0,63,0.00,,---,0.00,VWS V14.01,2013-02-09 21:16:00,
2013-02-09 15:17:00,50.2,37.3,29.81,ESE,118,20.0,21.0,61,0.00,,---,0.00,VWS V14.01,2013-02-09 21:17:00,
2013-02-09 15:18:00,50.2,37.3,29.81,SE,132,22.0,28.0,61,0.00,,---,0.00,VWS V14.01,2013-02-09 21:18:00,
2013-02-09 15:21:00,49.9,38.2,29.81,SE,125,17.0,29.0,64,0.00,,---,0.00,VWS V14.01,2013-02-09 21:21:00,
2013-02-09 15:22:00,49.9,37.4,29.81,ESE,117,19.0,29.0,62,0.00,,---,0.00,VWS V14.01,2013-02-09 21:22:00,
2013-02-09 15:23:00,49.9,37.4,29.81,SE,134,25.0,29.0,62,0.00,,---,0.00,VWS V14.01,2013-02-09 21:23:00,
2013-02-09 15:26:00,49.8,37.7,29.81,SE,130,17.0,29.0,63,0.00,,---,0.00,VWS V14.01,2013-02-09 21:26:00,
2013-02-09 15:27:00,49.6,37.5,29.81,SSE,147,22.0,29.0,63,0.00,,---,0.00,VWS V14.01,2013-02-09 21:27:00,
2013-02-09 15:28:00,49.6,37.1,29.81,ESE,122,23.0,29.0,62,0.00,,---,0.00,VWS V14.01,2013-02-09 21:28:00,
2013-02-09 15:30:00,50.2,37.3,29.81,ESE,111,21.0,28.0,61,0.00,,---,0.00,VWS V14.01,2013-02-09 21:30:00,
2013-02-09 15:32:00,49.6,38.3,29.81,ESE,112,18.0,29.0,65,0.00,,---,0.00,VWS V14.01,2013-02-09 21:32:00,
2013-02-09 15:33:00,49.6,37.5,29.81,ESE,113,23.0,29.0,63,0.00,,---,0.00,VWS V14.01,2013-02-09 21:33:00,
2013-02-09 15:37:00,49.5,37.0,29.81,ESE,108,22.0,29.0,62,0.00,,---,0.00,VWS V14.01,2013-02-09 21:37:00,
2013-02-09 15:38:00,49.5,37.0,29.81,ESE,116,17.0,29.0,62,0.00,,---,0.00,VWS V14.01,2013-02-09 21:38:00,
2013-02-09 15:39:00,49.5,37.0,29.81,ESE,105,17.0,29.0,62,0.00,,---,0.00,VWS V14.01,2013-02-09 21:39:00,
2013-02-09 15:42:00,49.4,37.8,29.81,ESE,118,15.0,29.0,64,0.00,,---,0.00,VWS V14.01,2013-02-09 21:42:00,
2013-02-09 15:43:00,49.4,37.3,29.81,SE,129,21.0,29.0,63,0.00,,---,0.00,VWS V14.01,2013-02-09 21:43:00,
2013-02-09 15:45:00,49.4,37.3,29.81,SE,129,13.0,29.0,63,0.00,,---,0.00,VWS V14.01,2013-02-09 21:45:00,
2013-02-09 15:48:00,49.4,37.8,29.80,ESE,120,12.0,21.0,64,0.00,,---,0.00,VWS V14.01,2013-02-09 21:48:00,
2013-02-09 15:49:00,49.4,36.9,29.80,SE,143,20.0,21.0,62,0.00,,---,0.00,VWS V14.01,2013-02-09 21:49:00,
2013-02-09 15:50:00,49.2,36.8,29.80,ESE,107,17.0,21.0,62,0.00,,---,0.00,VWS V14.01,2013-02-09 21:50:00,
2013-02-09 15:53:00,49.1,37.1,29.80,ESE,113,16.0,21.0,63,0.00,,---,0.00,VWS V14.01,2013-02-09 21:53:00,
2013-02-09 15:54:00,49.1,37.1,29.80,ESE,105,19.0,21.0,63,0.00,,---,0.00,VWS V14.01,2013-02-09 21:54:00,
2013-02-09 15:55:00,48.9,36.1,29.80,ESE,117,17.0,22.0,61,0.00,,---,0.00,VWS V14.01,2013-02-09 21:55:00,
2013-02-09 15:58:00,48.9,36.5,29.80,ESE,117,16.0,24.0,62,0.00,,---,0.00,VWS V14.01,2013-02-09 21:58:00,
2013-02-09 15:59:00,48.9,36.5,29.80,East,101,16.0,24.0,62,0.00,,---,0.00,VWS V14.01,2013-02-09 21:59:00,
2013-02-09 16:00:00,49.4,37.8,29.80,SE,127,12.0,29.0,64,0.00,,---,0.00,VWS V14.01,2013-02-09 22:00:00,
2013-02-09 16:01:00,48.9,36.9,29.80,SE,129,13.0,24.0,63,0.00,,---,0.00,VWS V14.01,2013-02-09 22:01:00,
2013-02-09 16:04:00,48.9,37.3,29.80,SE,144,18.0,24.0,64,0.00,,---,0.00,VWS V14.01,2013-02-09 22:04:00,
2013-02-09 16:05:00,48.9,36.5,29.80,SE,135,12.0,24.0,62,0.00,,---,0.00,VWS V14.01,2013-02-09 22:05:00,
2013-02-09 16:06:00,48.9,36.9,29.80,SE,140,17.0,24.0,63,0.00,,---,0.00,VWS V14.01,2013-02-09 22:06:00,
2013-02-09 16:09:00,48.6,36.2,29.80,SE,134,22.0,24.0,62,0.00,,---,0.00,VWS V14.01,2013-02-09 22:09:00,
2013-02-09 16:10:00,48.5,36.1,29.80,ESE,122,16.0,24.0,62,0.00,,---,0.00,VWS V14.01,2013-02-09 22:10:00,
2013-02-09 16:11:00,48.5,36.1,29.80,SE,128,12.0,24.0,62,0.00,,---,0.00,VWS V14.01,2013-02-09 22:11:00,
2013-02-09 16:14:00,48.3,35.5,29.80,SE,128,16.0,25.0,61,0.00,,---,0.00,VWS V14.01,2013-02-09 22:14:00,
2013-02-09 16:15:00,48.2,35.8,29.80,SE,140,21.0,25.0,62,0.00,,---,0.00,VWS V14.01,2013-02-09 22:15:00,
2013-02-09 16:16:00,48.2,35.4,29.80,SE,127,18.0,25.0,61,0.00,,---,0.00,VWS V14.01,2013-02-09 22:16:00,
2013-02-09 16:19:00,48.0,36.0,29.80,SE,136,11.0,20.0,63,0.00,,---,0.00,VWS V14.01,2013-02-09 22:19:00,
2013-02-09 16:20:00,48.0,36.0,29.80,SE,145,12.0,20.0,63,0.00,,---,0.00,VWS V14.01,2013-02-09 22:20:00,
2013-02-09 16:21:00,48.0,36.0,29.80,ESE,111,11.0,20.0,63,0.00,,---,0.00,VWS V14.01,2013-02-09 22:21:00,
2013-02-09 16:24:00,48.0,36.0,29.80,SE,131,13.0,21.0,63,0.00,,---,0.00,VWS V14.01,2013-02-09 22:24:00,
2013-02-09 16:26:00,47.9,36.3,29.80,ESE,117,21.0,21.0,64,0.00,,---,0.00,VWS V14.01,2013-02-09 22:26:00,
2013-02-09 16:27:00,47.9,35.5,29.80,SE,145,13.0,21.0,62,0.00,,---,0.00,VWS V14.01,2013-02-09 22:27:00,
2013-02-09 16:29:00,47.7,35.7,29.80,ESE,120,17.0,24.0,63,0.00,,---,0.00,VWS V14.01,2013-02-09 22:29:00,
2013-02-09 16:30:00,48.2,35.4,29.80,ESE,112,13.0,25.0,61,0.00,,---,0.00,VWS V14.01,2013-02-09 22:30:00,
2013-02-09 16:31:00,47.7,34.9,29.80,ESE,117,16.0,24.0,61,0.00,,---,0.00,VWS V14.01,2013-02-09 22:31:00,
2013-02-09 16:32:00,47.6,34.8,29.79,SE,132,20.0,24.0,61,0.00,,---,0.00,VWS V14.01,2013-02-09 22:32:00,
2013-02-09 16:34:00,47.6,34.8,29.79,ESE,122,17.0,24.0,61,0.00,,---,0.00,VWS V14.01,2013-02-09 22:34:00,
2013-02-09 16:36:00,47.4,34.2,29.79,SE,140,20.0,24.0,60,0.00,,---,0.00,VWS V14.01,2013-02-09 22:36:00,
2013-02-09 16:37:00,47.4,34.2,29.79,SE,124,21.0,24.0,60,0.00,,---,0.00,VWS V14.01,2013-02-09 22:37:00,
2013-02-09 16:39:00,47.3,34.1,29.79,SE,135,17.0,26.0,60,0.00,,---,0.00,VWS V14.01,2013-02-09 22:39:00,
2013-02-09 16:41:00,47.3,34.5,29.79,SE,134,24.0,29.0,61,0.00,,---,0.00,VWS V14.01,2013-02-09 22:41:00,
2013-02-09 16:42:00,47.1,34.4,29.79,ESE,117,17.0,29.0,61,0.00,,---,0.00,VWS V14.01,2013-02-09 22:42:00,
2013-02-09 16:43:00,47.1,34.4,29.79,SE,138,16.0,29.0,61,0.00,,---,0.00,VWS V14.01,2013-02-09 22:43:00,
2013-02-09 16:44:00,47.0,34.3,29.79,SE,129,18.0,29.0,61,0.00,,---,0.00,VWS V14.01,2013-02-09 22:44:00,
2013-02-09 16:46:00,47.0,34.3,29.79,ESE,113,15.0,29.0,61,0.00,,---,0.00,VWS V14.01,2013-02-09 22:46:00,
2013-02-09 16:47:00,47.0,34.7,29.79,SE,124,18.0,26.0,62,0.00,,---,0.00,VWS V14.01,2013-02-09 22:47:00,
2013-02-09 16:48:00,47.0,33.8,29.79,ESE,114,15.0,26.0,60,0.00,,---,0.00,VWS V14.01,2013-02-09 22:48:00,
2013-02-09 16:49:00,47.0,33.8,29.79,ESE,121,21.0,26.0,60,0.00,,---,0.00,VWS V14.01,2013-02-09 22:49:00,
2013-02-09 16:53:00,47.0,33.8,29.79,ESE,121,20.0,26.0,60,0.00,,---,0.00,VWS V14.01,2013-02-09 22:53:00,
2013-02-09 16:55:00,47.0,33.0,29.79,SE,124,16.0,26.0,58,0.00,,---,0.00,VWS V14.01,2013-02-09 22:55:00,
2013-02-09 16:58:00,47.0,33.8,29.79,SE,135,15.0,26.0,60,0.00,,---,0.00,VWS V14.01,2013-02-09 22:58:00,
2013-02-09 17:00:00,46.8,33.7,29.79,SE,127,11.0,26.0,60,0.00,,---,0.00,VWS V14.01,2013-02-09 23:00:00,
2013-02-09 17:03:00,46.8,34.1,29.78,ESE,122,17.0,26.0,61,0.00,,---,0.00,VWS V14.01,2013-02-09 23:03:00,
2013-02-09 17:05:00,46.8,32.8,29.78,SE,130,22.0,26.0,58,0.00,,---,0.00,VWS V14.01,2013-02-09 23:05:00,
2013-02-09 17:08:00,46.7,33.2,29.78,SE,134,14.0,26.0,59,0.00,,---,0.00,VWS V14.01,2013-02-09 23:08:00,
2013-02-09 17:09:00,46.7,33.2,29.78,SE,128,13.0,26.0,59,0.00,,---,0.00,VWS V14.01,2013-02-09 23:09:00,
2013-02-09 17:11:00,46.5,33.4,29.78,SE,130,17.0,26.0,60,0.00,,---,0.00,VWS V14.01,2013-02-09 23:11:00,
2013-02-09 17:13:00,46.5,33.4,29.78,ESE,115,10.0,26.0,60,0.00,,---,0.00,VWS V14.01,2013-02-09 23:13:00,
2013-02-09 17:14:00,46.4,33.7,29.78,ESE,117,13.0,26.0,61,0.00,,---,0.00,VWS V14.01,2013-02-09 23:14:00,
2013-02-09 17:16:00,46.4,33.7,29.78,ESE,110,14.0,26.0,61,0.00,,---,0.00,VWS V14.01,2013-02-09 23:16:00,
2013-02-09 17:18:00,46.2,33.5,29.78,SE,126,17.0,23.0,61,0.00,,---,0.00,VWS V14.01,2013-02-09 23:18:00,
2013-02-09 17:19:00,46.1,33.8,29.78,SE,134,20.0,23.0,62,0.00,,---,0.00,VWS V14.01,2013-02-09 23:19:00,
2013-02-09 17:21:00,45.8,33.9,29.78,SE,125,15.0,23.0,63,0.00,,---,0.00,VWS V14.01,2013-02-09 23:21:00,
2013-02-09 17:23:00,45.5,33.2,29.78,ESE,114,16.0,24.0,62,0.00,,---,0.00,VWS V14.01,2013-02-09 23:23:00,
2013-02-09 17:24:00,45.5,33.7,29.78,SE,129,16.0,24.0,63,0.00,,---,0.00,VWS V14.01,2013-02-09 23:24:00,
2013-02-09 17:25:00,45.4,34.3,29.78,ESE,112,16.0,24.0,65,0.00,,---,0.00,VWS V14.01,2013-02-09 23:25:00,
2013-02-09 17:26:00,45.2,34.2,29.78,SE,141,14.0,24.0,65,0.00,,---,0.00,VWS V14.01,2013-02-09 23:26:00,
2013-02-09 17:29:00,44.9,34.2,29.78,ESE,117,16.0,24.0,66,0.00,,---,0.00,VWS V14.01,2013-02-09 23:29:00,
2013-02-09 17:30:00,44.8,33.8,29.78,SE,127,14.0,24.0,65,0.00,,---,0.00,VWS V14.01,2013-02-09 23:30:00,
2013-02-09 17:31:00,44.8,34.2,29.77,ESE,123,12.0,24.0,66,0.00,,---,0.00,VWS V14.01,2013-02-09 23:31:00,
2013-02-09 17:34:00,44.8,33.8,29.77,SE,124,17.0,24.0,65,0.00,,---,0.00,VWS V14.01,2013-02-09 23:34:00,
2013-02-09 17:36:00,44.8,33.8,29.77,ESE,119,17.0,24.0,65,0.00,,---,0.00,VWS V14.01,2013-02-09 23:36:00,
2013-02-09 17:39:00,44.6,34.0,29.77,SE,124,22.0,24.0,66,0.00,,---,0.00,VWS V14.01,2013-02-09 23:39:00,
2013-02-09 17:40:00,44.8,33.8,29.77,ESE,114,22.0,24.0,65,0.00,,---,0.00,VWS V14.01,2013-02-09 23:40:00,
2013-02-09 17:41:00,44.8,33.8,29.77,ESE,122,19.0,24.0,65,0.00,,---,0.00,VWS V14.01,2013-02-09 23:41:00,
2013-02-09 17:42:00,44.8,33.8,29.77,ESE,113,22.0,24.0,65,0.00,,---,0.00,VWS V14.01,2013-02-09 23:42:00,
2013-02-09 17:44:00,44.8,33.4,29.77,ESE,111,13.0,24.0,64,0.00,,---,0.00,VWS V14.01,2013-02-09 23:44:00,
2013-02-09 17:45:00,44.8,33.4,29.77,ESE,108,18.0,26.0,64,0.00,,---,0.00,VWS V14.01,2013-02-09 23:45:00,
2013-02-09 17:47:00,44.8,33.4,29.76,ESE,108,19.0,26.0,64,0.00,,---,0.00,VWS V14.01,2013-02-09 23:47:00,
2013-02-09 17:49:00,44.8,34.2,29.76,ESE,113,15.0,20.0,66,0.00,,---,0.00,VWS V14.01,2013-02-09 23:49:00,
2013-02-09 17:50:00,44.6,34.0,29.76,ESE,103,21.0,25.0,66,0.00,,---,0.00,VWS V14.01,2013-02-09 23:50:00,
2013-02-09 17:52:00,44.6,33.6,29.76,SE,131,24.0,25.0,65,0.00,,---,0.00,VWS V14.01,2013-02-09 23:52:00,
2013-02-09 17:55:00,44.6,34.0,29.76,SE,127,20.0,25.0,66,0.00,,---,0.00,VWS V14.01,2013-02-09 23:55:00,
2013-02-09 17:56:00,44.5,33.9,29.76,ESE,117,16.0,25.0,66,0.00,,---,0.00,VWS V14.01,2013-02-09 23:56:00,
2013-02-09 17:57:00,44.5,33.9,29.76,ESE,106,18.0,25.0,66,0.00,,---,0.00,VWS V14.01,2013-02-09 23:57:00,
2013-02-09 18:00:00,44.5,33.9,29.76,ESE,105,11.0,11.0,66,0.00,,---,0.00,VWS V14.01,2013-02-10 00:00:00,
2013-02-09 18:01:00,44.3,34.0,29.76,ESE,119,16.0,17.0,67,0.00,,---,0.00,VWS V14.01,2013-02-10 00:01:00,
2013-02-09 18:02:00,44.3,34.0,29.75,ESE,105,14.0,17.0,67,0.00,,---,0.00,VWS V14.01,2013-02-10 00:02:00,
2013-02-09 18:03:00,44.3,33.7,29.75,ESE,113,13.0,17.0,66,0.00,,---,0.00,VWS V14.01,2013-02-10 00:03:00,
2013-02-09 18:05:00,44.3,34.0,29.75,ESE,112,13.0,18.0,67,0.00,,---,0.00,VWS V14.01,2013-02-10 00:05:00,
2013-02-09 18:06:00,44.3,34.0,29.75,ESE,121,19.0,19.0,67,0.00,,---,0.00,VWS V14.01,2013-02-10 00:06:00,
2013-02-09 18:07:00,44.3,34.0,29.75,ESE,117,15.0,19.0,67,0.00,,---,0.00,VWS V14.01,2013-02-10 00:07:00,
2013-02-09 18:08:00,44.3,33.7,29.75,ESE,117,19.0,24.0,66,0.00,,---,0.00,VWS V14.01,2013-02-10 00:08:00,
2013-02-09 18:10:00,44.3,33.7,29.75,ESE,118,15.0,24.0,66,0.00,,---,0.00,VWS V14.01,2013-02-10 00:10:00,
2013-02-09 18:11:00,44.3,34.0,29.75,ESE,122,12.0,24.0,67,0.00,,---,0.00,VWS V14.01,2013-02-10 00:11:00,
2013-02-09 18:12:00,44.3,34.0,29.75,ESE,117,12.0,24.0,67,0.00,,---,0.00,VWS V14.01,2013-02-10 00:12:00,
2013-02-09 18:13:00,44.3,34.4,29.75,ESE,115,14.0,24.0,68,0.00,,---,0.00,VWS V14.01,2013-02-10 00:13:00,
2013-02-09 18:16:00,44.2,34.0,29.75,ESE,113,14.0,24.0,67,0.00,,---,0.00,VWS V14.01,2013-02-10 00:16:00,
2013-02-09 18:17:00,44.3,34.0,29.75,SE,125,16.0,16.0,67,0.00,,---,0.00,VWS V14.01,2013-02-10 00:17:00,
2013-02-09 18:18:00,44.2,34.3,29.75,SE,125,15.0,18.0,68,0.00,,---,0.00,VWS V14.01,2013-02-10 00:18:00,
2013-02-09 18:21:00,44.2,34.3,29.75,ESE,102,18.0,27.0,68,0.00,,---,0.00,VWS V14.01,2013-02-10 00:21:00,
2013-02-09 18:22:00,44.2,34.3,29.75,ESE,116,16.0,27.0,68,0.00,,---,0.00,VWS V14.01,2013-02-10 00:22:00,
2013-02-09 18:23:00,44.2,34.3,29.75,SE,126,15.0,27.0,68,0.00,,---,0.00,VWS V14.01,2013-02-10 00:23:00,
2013-02-09 18:27:00,44.2,34.3,29.75,SE,128,15.0,27.0,68,0.00,,---,0.00,VWS V14.01,2013-02-10 00:27:00,
2013-02-09 18:28:00,44.1,34.2,29.75,SE,125,17.0,27.0,68,0.00,,---,0.00,VWS V14.01,2013-02-10 00:28:00,
2013-02-09 18:30:00,44.3,34.0,29.75,SE,134,14.0,24.0,67,0.00,,---,0.00,VWS V14.01,2013-02-10 00:30:00,
2013-02-09 18:32:00,44.1,34.2,29.74,ESE,105,15.0,27.0,68,0.00,,---,0.00,VWS V14.01,2013-02-10 00:32:00,
2013-02-09 18:33:00,44.1,34.6,29.74,ESE,122,21.0,27.0,69,0.00,,---,0.00,VWS V14.01,2013-02-10 00:33:00,
2013-02-09 18:34:00,44.1,34.6,29.74,ESE,116,16.0,27.0,69,0.00,,---,0.00,VWS V14.01,2013-02-10 00:34:00,
2013-02-09 18:37:00,43.9,34.4,29.74,SE,127,17.0,27.0,69,0.00,,---,0.00,VWS V14.01,2013-02-10 00:37:00,
2013-02-09 18:38:00,43.9,34.4,29.74,ESE,104,14.0,27.0,69,0.00,,---,0.00,VWS V14.01,2013-02-10 00:38:00,
2013-02-09 18:39:00,43.8,35.0,29.74,ESE,122,14.0,27.0,71,0.00,,---,0.00,VWS V14.01,2013-02-10 00:39:00,
2013-02-09 18:42:00,43.8,35.0,29.74,ESE,109,13.0,27.0,71,0.00,,---,0.00,VWS V14.01,2013-02-10 00:42:00,
2013-02-09 18:43:00,43.6,34.8,29.74,ESE,110,13.0,27.0,71,0.00,,---,0.00,VWS V14.01,2013-02-10 00:43:00,
2013-02-09 18:44:00,43.6,34.8,29.74,ESE,114,15.0,27.0,71,0.00,,---,0.00,VWS V14.01,2013-02-10 00:44:00,
2013-02-09 18:47:00,43.6,34.8,29.75,ESE,122,15.0,16.0,71,0.00,,---,0.00,VWS V14.01,2013-02-10 00:47:00,
2013-02-09 18:49:00,43.6,34.8,29.75,SE,131,13.0,17.0,71,0.00,,---,0.00,VWS V14.01,2013-02-10 00:49:00,
2013-02-09 18:50:00,43.6,34.8,29.75,ESE,109,14.0,18.0,71,0.00,,---,0.00,VWS V14.01,2013-02-10 00:50:00,
2013-02-09 18:52:00,43.6,34.5,29.75,ESE,116,16.0,22.0,70,0.00,,---,0.00,VWS V14.01,2013-02-10 00:52:00,
2013-02-09 18:53:00,43.6,34.5,29.75,ESE,108,12.0,22.0,70,0.00,,---,0.00,VWS V14.01,2013-02-10 00:53:00,
2013-02-09 18:54:00,43.6,34.8,29.75,ESE,117,13.0,22.0,71,0.00,,---,0.00,VWS V14.01,2013-02-10 00:54:00,
2013-02-09 18:55:00,43.5,34.7,29.75,ESE,106,15.0,22.0,71,0.00,,---,0.00,VWS V14.01,2013-02-10 00:55:00,
2013-02-09 18:57:00,43.5,34.7,29.75,ESE,123,14.0,22.0,71,0.00,,---,0.00,VWS V14.01,2013-02-10 00:57:00,
2013-02-09 18:58:00,43.5,34.7,29.75,ESE,116,11.0,22.0,71,0.00,,---,0.00,VWS V14.01,2013-02-10 00:58:00,
2013-02-09 18:59:00,43.3,34.9,29.75,ESE,114,12.0,22.0,72,0.00,,---,0.00,VWS V14.01,2013-02-10 00:59:00,
2013-02-09 19:00:00,43.3,34.9,29.75,SE,127,14.0,22.0,72,0.00,,---,0.00,VWS V14.01,2013-02-10 01:00:00,
2013-02-09 19:03:00,43.3,34.5,29.75,ESE,115,19.0,22.0,71,0.00,,---,0.00,VWS V14.01,2013-02-10 01:03:00,
2013-02-09 19:04:00,43.3,34.5,29.75,ESE,106,14.0,22.0,71,0.00,,---,0.00,VWS V14.01,2013-02-10 01:04:00,
2013-02-09 19:05:00,43.3,34.5,29.75,ESE,116,14.0,22.0,71,0.00,,---,0.00,VWS V14.01,2013-02-10 01:05:00,
2013-02-09 19:08:00,43.2,34.5,29.75,East,98,17.0,22.0,71,0.00,,---,0.00,VWS V14.01,2013-02-10 01:08:00,
2013-02-09 19:09:00,43.2,34.5,29.75,SE,129,20.0,22.0,71,0.00,,---,0.00,VWS V14.01,2013-02-10 01:09:00,
2013-02-09 19:10:00,43.2,34.5,29.75,ESE,122,16.0,22.0,71,0.00,,---,0.00,VWS V14.01,2013-02-10 01:10:00,
2013-02-09 19:13:00,43.2,34.8,29.75,ESE,120,16.0,22.0,72,0.00,,---,0.00,VWS V14.01,2013-02-10 01:13:00,
2013-02-09 19:14:00,43.2,34.8,29.75,ESE,121,16.0,22.0,72,0.00,,---,0.00,VWS V14.01,2013-02-10 01:14:00,
2013-02-09 19:16:00,43.2,34.5,29.75,SE,124,18.0,22.0,71,0.00,,---,0.00,VWS V14.01,2013-02-10 01:16:00,
2013-02-09 19:19:00,43.2,34.8,29.75,ESE,109,15.0,18.0,72,0.00,,---,0.00,VWS V14.01,2013-02-10 01:19:00,
2013-02-09 19:20:00,43.2,34.8,29.75,ESE,120,16.0,18.0,72,0.00,,---,0.00,VWS V14.01,2013-02-10 01:20:00,
2013-02-09 19:21:00,43.2,34.5,29.75,ESE,114,9.0,18.0,71,0.00,,---,0.00,VWS V14.01,2013-02-10 01:21:00,
2013-02-09 19:24:00,43.1,34.7,29.75,ESE,115,11.0,18.0,72,0.00,,---,0.00,VWS V14.01,2013-02-10 01:24:00,
2013-02-09 19:25:00,43.1,34.7,29.75,ESE,103,14.0,18.0,72,0.00,,---,0.00,VWS V14.01,2013-02-10 01:25:00,
2013-02-09 19:26:00,43.1,34.7,29.75,SE,127,15.0,18.0,72,0.00,,---,0.00,VWS V14.01,2013-02-10 01:26:00,
2013-02-09 19:30:00,43.1,35.0,29.75,ESE,120,12.0,19.0,73,0.00,,---,0.00,VWS V14.01,2013-02-10 01:30:00,
2013-02-09 19:32:00,43.1,34.7,29.75,ESE,118,11.0,19.0,72,0.00,,---,0.00,VWS V14.01,2013-02-10 01:32:00,
2013-02-09 19:35:00,42.9,34.8,29.75,ESE,120,12.0,19.0,73,0.00,,---,0.00,VWS V14.01,2013-02-10 01:35:00,
2013-02-09 19:36:00,42.9,34.8,29.75,ESE,110,14.0,19.0,73,0.00,,---,0.00,VWS V14.01,2013-02-10 01:36:00,
2013-02-09 19:37:00,42.9,34.8,29.75,ESE,114,11.0,19.0,73,0.00,,---,0.00,VWS V14.01,2013-02-10 01:37:00,
2013-02-09 19:41:00,42.9,34.8,29.75,ESE,110,15.0,20.0,73,0.00,,---,0.00,VWS V14.01,2013-02-10 01:41:00,
2013-02-09 19:42:00,42.9,34.8,29.75,East,92,17.0,20.0,73,0.00,,---,0.00,VWS V14.01,2013-02-10 01:42:00,
2013-02-09 19:46:00,42.9,34.8,29.75,ESE,117,15.0,21.0,73,0.00,,---,0.00,VWS V14.01,2013-02-10 01:46:00,
2013-02-09 19:47:00,42.9,34.8,29.74,ESE,102,10.0,21.0,73,0.00,,---,0.00,VWS V14.01,2013-02-10 01:47:00,
2013-02-09 19:48:00,42.9,35.2,29.74,East,98,13.0,15.0,74,0.00,,---,0.00,VWS V14.01,2013-02-10 01:48:00,
2013-02-09 19:51:00,42.9,35.2,29.74,ESE,115,15.0,15.0,74,0.00,,---,0.00,VWS V14.01,2013-02-10 01:51:00,
2013-02-09 19:52:00,42.8,35.1,29.74,ESE,113,12.0,15.0,74,0.00,,---,0.00,VWS V14.01,2013-02-10 01:52:00,
2013-02-09 19:53:00,42.8,35.1,29.74,ESE,121,15.0,18.0,74,0.00,,---,0.00,VWS V14.01,2013-02-10 01:53:00,
2013-02-09 19:56:00,42.9,35.2,29.74,ESE,115,13.0,20.0,74,0.00,,---,0.00,VWS V14.01,2013-02-10 01:56:00,
2013-02-09 19:57:00,42.9,35.2,29.74,SE,125,10.0,20.0,74,0.00,,---,0.00,VWS V14.01,2013-02-10 01:57:00,
2013-02-09 19:58:00,42.8,35.1,29.74,ESE,121,11.0,20.0,74,0.00,,---,0.00,VWS V14.01,2013-02-10 01:58:00,
2013-02-09 20:00:00,42.9,34.8,29.74,ESE,108,10.0,21.0,73,0.00,,---,0.00,VWS V14.01,2013-02-10 02:00:00,
2013-02-09 20:01:00,42.8,35.1,29.73,SE,136,19.0,20.0,74,0.00,,---,0.00,VWS V14.01,2013-02-10 02:01:00,
2013-02-09 20:02:00,42.9,35.2,29.73,ESE,115,12.0,20.0,74,0.00,,---,0.00,VWS V14.01,2013-02-10 02:02:00,
2013-02-09 20:03:00,42.9,35.2,29.73,East,97,13.0,20.0,74,0.00,,---,0.00,VWS V14.01,2013-02-10 02:03:00,
2013-02-09 20:06:00,42.9,35.5,29.73,SE,125,14.0,20.0,75,0.00,,---,0.00,VWS V14.01,2013-02-10 02:06:00,
2013-02-09 20:07:00,42.9,35.2,29.73,ESE,109,19.0,20.0,74,0.00,,---,0.00,VWS V14.01,2013-02-10 02:07:00,
2013-02-09 20:08:00,42.9,35.2,29.73,ESE,121,14.0,20.0,74,0.00,,---,0.00,VWS V14.01,2013-02-10 02:08:00,
2013-02-09 20:12:00,42.9,35.5,29.73,ESE,120,11.0,20.0,75,0.00,,---,0.00,VWS V14.01,2013-02-10 02:12:00,
2013-02-09 20:13:00,42.8,36.1,29.73,East,99,14.0,20.0,77,0.00,,---,0.00,VWS V14.01,2013-02-10 02:13:00,
2013-02-09 20:17:00,42.8,35.4,29.71,East,91,11.0,11.0,75,0.00,,---,0.00,VWS V14.01,2013-02-10 02:17:00,
2013-02-09 20:18:00,42.8,35.1,29.71,ESE,122,15.0,18.0,74,0.00,,---,0.00,VWS V14.01,2013-02-10 02:18:00,
2013-02-09 20:19:00,42.8,35.1,29.71,ESE,120,13.0,18.0,74,0.00,,---,0.00,VWS V14.01,2013-02-10 02:19:00,
2013-02-09 20:22:00,42.9,35.2,29.71,SE,124,15.0,20.0,74,0.00,,---,0.00,VWS V14.01,2013-02-10 02:22:00,
2013-02-09 20:24:00,42.9,34.8,29.71,SE,125,14.0,20.0,73,0.00,,---,0.00,VWS V14.01,2013-02-10 02:24:00,
2013-02-09 20:25:00,42.9,34.8,29.71,SE,125,20.0,20.0,73,0.00,,---,0.00,VWS V14.01,2013-02-10 02:25:00,
2013-02-09 20:27:00,42.9,34.8,29.71,ESE,121,10.0,21.0,73,0.00,,---,0.00,VWS V14.01,2013-02-10 02:27:00,
2013-02-09 20:29:00,42.9,35.2,29.71,ESE,105,15.0,21.0,74,0.00,,---,0.00,VWS V14.01,2013-02-10 02:29:00,
2013-02-09 20:30:00,42.8,35.4,29.71,ESE,110,11.0,20.0,75,0.00,,---,0.00,VWS V14.01,2013-02-10 02:30:00,
2013-02-09 20:32:00,42.9,35.2,29.72,SE,126,12.0,21.0,74,0.00,,---,0.00,VWS V14.01,2013-02-10 02:32:00,
2013-02-09 20:33:00,42.9,35.2,29.72,ESE,110,11.0,21.0,74,0.00,,---,0.00,VWS V14.01,2013-02-10 02:33:00,
2013-02-09 20:34:00,42.9,35.2,29.72,SE,129,14.0,21.0,74,0.00,,---,0.00,VWS V14.01,2013-02-10 02:34:00,
2013-02-09 20:37:00,42.9,35.2,29.72,ESE,120,14.0,21.0,74,0.00,,---,0.00,VWS V14.01,2013-02-10 02:37:00,
2013-02-09 20:38:00,42.9,35.2,29.72,ESE,122,11.0,21.0,74,0.00,,---,0.00,VWS V14.01,2013-02-10 02:38:00,
2013-02-09 20:40:00,42.9,35.5,29.72,ESE,119,11.0,21.0,75,0.00,,---,0.00,VWS V14.01,2013-02-10 02:40:00,
2013-02-09 20:42:00,42.9,35.2,29.72,ESE,103,11.0,21.0,74,0.00,,---,0.00,VWS V14.01,2013-02-10 02:42:00,
2013-02-09 20:43:00,42.9,35.2,29.72,ESE,115,12.0,21.0,74,0.00,,---,0.00,VWS V14.01,2013-02-10 02:43:00,
2013-02-09 20:45:00,42.9,35.5,29.72,SE,133,14.0,21.0,75,0.00,,---,0.00,VWS V14.01,2013-02-10 02:45:00,
2013-02-09 20:47:00,42.9,35.5,29.72,ESE,115,14.0,15.0,75,0.00,,---,0.00,VWS V14.01,2013-02-10 02:47:00,
2013-02-09 20:48:00,42.9,35.5,29.72,ESE,108,11.0,15.0,75,0.00,,---,0.00,VWS V14.01,2013-02-10 02:48:00,
2013-02-09 20:50:00,42.9,35.5,29.72,SE,137,10.0,17.0,75,0.00,,---,0.00,VWS V14.01,2013-02-10 02:50:00,
2013-02-09 20:53:00,42.9,35.9,29.72,SE,129,16.0,17.0,76,0.00,,---,0.00,VWS V14.01,2013-02-10 02:53:00,
2013-02-09 20:56:00,42.9,35.9,29.72,ESE,116,13.0,19.0,76,0.00,,---,0.00,VWS V14.01,2013-02-10 02:56:00,
2013-02-09 20:58:00,42.9,35.9,29.72,SE,125,12.0,19.0,76,0.00,,---,0.00,VWS V14.01,2013-02-10 02:58:00,
2013-02-09 20:59:00,42.9,35.9,29.72,SE,126,13.0,19.0,76,0.00,,---,0.00,VWS V14.01,2013-02-10 02:59:00,
2013-02-09 21:00:00,42.9,35.5,29.72,SE,130,15.0,21.0,75,0.00,,---,0.00,VWS V14.01,2013-02-10 03:00:00,
2013-02-09 21:01:00,42.8,35.8,29.72,SE,124,12.0,14.0,76,0.00,,---,0.00,VWS V14.01,2013-02-10 03:01:00,
2013-02-09 21:03:00,42.8,35.8,29.72,ESE,110,12.0,15.0,76,0.00,,---,0.00,VWS V14.01,2013-02-10 03:03:00,
2013-02-09 21:04:00,42.8,35.8,29.72,ESE,116,10.0,15.0,76,0.00,,---,0.00,VWS V14.01,2013-02-10 03:04:00,
2013-02-09 21:06:00,42.8,35.8,29.72,ESE,110,15.0,15.0,76,0.00,,---,0.00,VWS V14.01,2013-02-10 03:06:00,
2013-02-09 21:08:00,42.8,35.8,29.72,East,94,12.0,16.0,76,0.00,,---,0.00,VWS V14.01,2013-02-10 03:08:00,
2013-02-09 21:09:00,42.8,35.8,29.72,ESE,113,14.0,16.0,76,0.00,,---,0.00,VWS V14.01,2013-02-10 03:09:00,
2013-02-09 21:11:00,42.8,35.8,29.72,ESE,113,12.0,16.0,76,0.00,,---,0.00,VWS V14.01,2013-02-10 03:11:00,
2013-02-09 21:13:00,42.8,35.8,29.72,ESE,113,16.0,17.0,76,0.00,,---,0.00,VWS V14.01,2013-02-10 03:13:00,
2013-02-09 21:14:00,42.8,35.8,29.72,ESE,109,19.0,20.0,76,0.00,,---,0.00,VWS V14.01,2013-02-10 03:14:00,
2013-02-09 21:16:00,42.8,35.8,29.69,East,101,11.0,20.0,76,0.00,,---,0.00,VWS V14.01,2013-02-10 03:16:00,
2013-02-09 21:19:00,42.8,35.8,29.69,ESE,110,15.0,19.0,76,0.00,,---,0.00,VWS V14.01,2013-02-10 03:19:00,
2013-02-09 21:20:00,42.6,35.6,29.69,ESE,105,17.0,19.0,76,0.00,,---,0.00,VWS V14.01,2013-02-10 03:20:00,
2013-02-09 21:21:00,42.6,35.6,29.69,East,98,13.0,19.0,76,0.00,,---,0.00,VWS V14.01,2013-02-10 03:21:00,
2013-02-09 21:24:00,42.6,35.6,29.69,ESE,120,14.0,19.0,76,0.00,,---,0.00,VWS V14.01,2013-02-10 03:24:00,
2013-02-09 21:25:00,42.6,35.9,29.69,ESE,120,12.0,19.0,77,0.00,,---,0.00,VWS V14.01,2013-02-10 03:25:00,
2013-02-09 21:27:00,42.5,35.8,29.69,ESE,111,14.0,22.0,77,0.00,,---,0.00,VWS V14.01,2013-02-10 03:27:00,
2013-02-09 21:29:00,42.5,36.1,29.69,ESE,115,11.0,22.0,78,0.00,,---,0.00,VWS V14.01,2013-02-10 03:29:00,
2013-02-09 21:30:00,42.5,36.1,29.69,ESE,121,13.0,22.0,78,0.00,,---,0.00,VWS V14.01,2013-02-10 03:30:00,
2013-02-09 21:32:00,42.3,35.9,29.68,ESE,115,12.0,22.0,78,0.00,,---,0.00,VWS V14.01,2013-02-10 03:32:00,
2013-02-09 21:34:00,42.3,35.9,29.68,ESE,103,11.0,22.0,78,0.00,,---,0.00,VWS V14.01,2013-02-10 03:34:00,
2013-02-09 21:35:00,42.3,35.9,29.68,ESE,122,14.0,22.0,78,0.00,,---,0.00,VWS V14.01,2013-02-10 03:35:00,
2013-02-09 21:37:00,42.3,35.9,29.68,ESE,120,16.0,22.0,78,0.00,,---,0.00,VWS V14.01,2013-02-10 03:37:00,
2013-02-09 21:39:00,42.3,35.9,29.68,ESE,122,16.0,22.0,78,0.00,,---,0.00,VWS V14.01,2013-02-10 03:39:00,
2013-02-09 21:40:00,42.3,35.9,29.68,ESE,122,16.0,22.0,78,0.00,,---,0.00,VWS V14.01,2013-02-10 03:40:00,
2013-02-09 21:41:00,42.3,35.9,29.68,SE,127,18.0,22.0,78,0.00,,---,0.00,VWS V14.01,2013-02-10 03:41:00,
2013-02-09 21:42:00,42.3,35.9,29.68,ESE,117,14.0,22.0,78,0.00,,---,0.00,VWS V14.01,2013-02-10 03:42:00,
2013-02-09 21:45:00,42.3,35.9,29.68,ESE,103,12.0,22.0,78,0.00,,---,0.00,VWS V14.01,2013-02-10 03:45:00,
2013-02-09 21:46:00,42.3,36.3,29.68,ESE,109,11.0,22.0,79,0.00,,---,0.00,VWS V14.01,2013-02-10 03:46:00,
2013-02-09 21:47:00,42.3,36.3,29.68,ESE,115,17.0,19.0,79,0.00,,---,0.00,VWS V14.01,2013-02-10 03:47:00,
2013-02-09 21:50:00,42.3,35.9,29.68,ESE,104,14.0,19.0,78,0.00,,---,0.00,VWS V14.01,2013-02-10 03:50:00,
2013-02-09 21:51:00,42.3,35.9,29.68,ESE,113,17.0,19.0,78,0.00,,---,0.00,VWS V14.01,2013-02-10 03:51:00,
2013-02-09 21:53:00,42.3,35.9,29.68,East,100,13.0,19.0,78,0.00,,---,0.00,VWS V14.01,2013-02-10 03:53:00,
2013-02-09 21:56:00,42.3,36.3,29.68,ESE,111,15.0,19.0,79,0.00,,---,0.00,VWS V14.01,2013-02-10 03:56:00,
2013-02-09 21:58:00,42.3,35.9,29.68,ESE,112,19.0,21.0,78,0.00,,---,0.00,VWS V14.01,2013-02-10 03:58:00,
2013-02-09 22:00:00,42.3,36.3,29.68,ESE,108,17.0,22.0,79,0.00,,---,0.00,VWS V14.01,2013-02-10 04:00:00,
2013-02-09 22:01:00,42.5,36.5,29.68,ESE,119,16.0,22.0,79,0.00,,---,0.00,VWS V14.01,2013-02-10 04:01:00,
2013-02-09 22:02:00,42.5,36.5,29.66,ESE,105,13.0,22.0,79,0.00,,---,0.00,VWS V14.01,2013-02-10 04:02:00,
2013-02-09 22:03:00,42.5,36.5,29.66,ESE,113,13.0,22.0,79,0.00,,---,0.00,VWS V14.01,2013-02-10 04:03:00,
2013-02-09 22:06:00,42.5,36.5,29.66,SE,134,15.0,22.0,79,0.00,,---,0.00,VWS V14.01,2013-02-10 04:06:00,
2013-02-09 22:07:00,42.5,36.5,29.66,SE,127,12.0,22.0,79,0.00,,---,0.00,VWS V14.01,2013-02-10 04:07:00,
2013-02-09 22:08:00,42.5,36.8,29.66,ESE,122,20.0,22.0,80,0.00,,---,0.00,VWS V14.01,2013-02-10 04:08:00,
2013-02-09 22:11:00,42.3,36.6,29.66,SE,131,17.0,22.0,80,0.00,,---,0.00,VWS V14.01,2013-02-10 04:11:00,
2013-02-09 22:12:00,42.3,36.6,29.66,ESE,117,16.0,23.0,80,0.00,,---,0.00,VWS V14.01,2013-02-10 04:12:00,
2013-02-09 22:13:00,42.3,36.9,29.66,ESE,115,15.0,23.0,81,0.00,,---,0.00,VWS V14.01,2013-02-10 04:13:00,
2013-02-09 22:17:00,42.2,36.8,29.67,ESE,107,18.0,23.0,81,0.00,,---,0.00,VWS V14.01,2013-02-10 04:17:00,
2013-02-09 22:18:00,42.1,37.0,29.67,SE,127,15.0,18.0,82,0.00,,---,0.00,VWS V14.01,2013-02-10 04:18:00,
2013-02-09 22:22:00,42.1,37.0,29.67,ESE,119,13.0,22.0,82,0.00,,---,0.00,VWS V14.01,2013-02-10 04:22:00,
2013-02-09 22:23:00,41.9,36.8,29.67,SE,132,14.0,22.0,82,0.00,,---,0.00,VWS V14.01,2013-02-10 04:23:00,
2013-02-09 22:27:00,41.9,37.1,29.67,SE,124,16.0,22.0,83,0.00,,---,0.00,VWS V14.01,2013-02-10 04:27:00,
2013-02-09 22:28:00,41.9,37.1,29.67,ESE,110,15.0,22.0,83,0.00,,---,0.00,VWS V14.01,2013-02-10 04:28:00,
2013-02-09 22:30:00,42.2,36.8,29.67,ESE,106,15.0,23.0,81,0.00,,---,0.00,VWS V14.01,2013-02-10 04:30:00,
2013-02-09 22:32:00,41.8,37.0,29.65,SE,124,15.0,22.0,83,0.00,,---,0.00,VWS V14.01,2013-02-10 04:32:00,
2013-02-09 22:33:00,41.8,37.0,29.65,ESE,116,14.0,22.0,83,0.00,,---,0.00,VWS V14.01,2013-02-10 04:33:00,
2013-02-09 22:34:00,41.8,37.0,29.65,ESE,122,16.0,22.0,83,0.00,,---,0.00,VWS V14.01,2013-02-10 04:34:00,
2013-02-09 22:37:00,41.8,37.0,29.65,ESE,117,17.0,22.0,83,0.00,,---,0.00,VWS V14.01,2013-02-10 04:37:00,
2013-02-09 22:38:00,41.8,37.0,29.65,ESE,113,18.0,22.0,83,0.00,,---,0.00,VWS V14.01,2013-02-10 04:38:00,
2013-02-09 22:39:00,41.8,37.0,29.65,ESE,122,12.0,22.0,83,0.00,,---,0.00,VWS V14.01,2013-02-10 04:39:00,
2013-02-09 22:43:00,41.8,37.0,29.65,East,95,15.0,22.0,83,0.00,,---,0.00,VWS V14.01,2013-02-10 04:43:00,
2013-02-09 22:44:00,41.8,37.0,29.65,ESE,108,14.0,22.0,83,0.00,,---,0.00,VWS V14.01,2013-02-10 04:44:00,
2013-02-09 22:45:00,41.8,37.0,29.65,ESE,121,19.0,22.0,83,0.00,,---,0.00,VWS V14.01,2013-02-10 04:45:00,
2013-02-09 22:48:00,41.9,37.1,29.63,ESE,110,16.0,20.0,83,0.00,,---,0.00,VWS V14.01,2013-02-10 04:48:00,
2013-02-09 22:49:00,41.9,37.1,29.63,ESE,122,12.0,20.0,83,0.00,,---,0.00,VWS V14.01,2013-02-10 04:49:00,
2013-02-09 22:50:00,41.9,37.1,29.63,SE,137,15.0,20.0,83,0.00,,---,0.00,VWS V14.01,2013-02-10 04:50:00,
2013-02-09 22:53:00,41.9,37.1,29.63,ESE,110,15.0,20.0,83,0.00,,---,0.00,VWS V14.01,2013-02-10 04:53:00,
2013-02-09 22:55:00,42.1,37.3,29.63,SE,128,17.0,20.0,83,0.00,,---,0.00,VWS V14.01,2013-02-10 04:55:00,
2013-02-09 22:58:00,42.1,37.3,29.63,ESE,117,12.0,21.0,83,0.00,,---,0.00,VWS V14.01,2013-02-10 04:58:00,
2013-02-09 22:59:00,42.1,37.6,29.63,ESE,114,15.0,21.0,84,0.00,,---,0.00,VWS V14.01,2013-02-10 04:59:00,
2013-02-09 23:00:00,42.2,37.7,29.63,ESE,119,15.0,21.0,84,0.00,,---,0.00,VWS V14.01,2013-02-10 05:00:00,
2013-02-09 23:30:00,42.6,38.4,29.62,ESE,112,15.0,25.0,85,0.00,,---,0.00,VWS V14.01,2013-02-10 05:30:00,